<?xml version="1.0" encoding="UTF-8" standalone="no" ?>
<gpx xmlns="http://www.topografix.com/GPX/1/1" xmlns:xsi="http://www.w3.org/2001/XMLSchema-instance" xsi:schemaLocation="http://www.topografix.com/GPX/1/1 http://www.topografix.com/GPX/1/1/gpx.xsd" version="1.1" creator="VisuGPX - https://www.visugpx.com">
  <metadata>
    <name>Phare de la coubre</name>
  </metadata>
  <trk>
    <name><![CDATA[track]]></name>
    <trkseg>
      <trkpt lat="45.69902" lon="-1.22954">
        <ele>6</ele>
        <time>2011-10-08T07:02:41Z</time>
      </trkpt>
      <trkpt lat="45.69899" lon="-1.22946">
        <ele>5</ele>
        <time>2011-10-08T07:03:04Z</time>
      </trkpt>
      <trkpt lat="45.699" lon="-1.22942">
        <ele>5</ele>
        <time>2011-10-08T07:03:07Z</time>
      </trkpt>
      <trkpt lat="45.699" lon="-1.22929">
        <ele>3</ele>
        <time>2011-10-08T07:03:18Z</time>
      </trkpt>
      <trkpt lat="45.69902" lon="-1.22926">
        <ele>3</ele>
        <time>2011-10-08T07:03:20Z</time>
      </trkpt>
      <trkpt lat="45.699" lon="-1.22915">
        <ele>1</ele>
        <time>2011-10-08T07:03:30Z</time>
      </trkpt>
      <trkpt lat="45.699" lon="-1.22906">
        <ele>-1</ele>
        <time>2011-10-08T07:03:40Z</time>
      </trkpt>
      <trkpt lat="45.699" lon="-1.22905">
        <ele>-1</ele>
        <time>2011-10-08T07:03:42Z</time>
      </trkpt>
      <trkpt lat="45.69901" lon="-1.22896">
        <ele>-1</ele>
        <time>2011-10-08T07:03:48Z</time>
      </trkpt>
      <trkpt lat="45.69898" lon="-1.22887">
        <ele>-3</ele>
        <time>2011-10-08T07:03:55Z</time>
      </trkpt>
      <trkpt lat="45.69896" lon="-1.22881">
        <ele>-4</ele>
        <time>2011-10-08T07:03:59Z</time>
      </trkpt>
      <trkpt lat="45.69892" lon="-1.22876">
        <ele>-4</ele>
        <time>2011-10-08T07:04:03Z</time>
      </trkpt>
      <trkpt lat="45.69886" lon="-1.22867">
        <ele>-3</ele>
        <time>2011-10-08T07:04:14Z</time>
      </trkpt>
      <trkpt lat="45.69886" lon="-1.22865">
        <ele>-3</ele>
        <time>2011-10-08T07:04:16Z</time>
      </trkpt>
      <trkpt lat="45.69884" lon="-1.22849">
        <ele>-1</ele>
        <time>2011-10-08T07:04:31Z</time>
      </trkpt>
      <trkpt lat="45.69883" lon="-1.22849">
        <ele>-2</ele>
        <time>2011-10-08T07:04:37Z</time>
      </trkpt>
      <trkpt lat="45.69878" lon="-1.22852">
        <ele>-4</ele>
        <time>2011-10-08T07:04:44Z</time>
      </trkpt>
      <trkpt lat="45.6987" lon="-1.22855">
        <ele>-4</ele>
        <time>2011-10-08T07:04:55Z</time>
      </trkpt>
      <trkpt lat="45.69864" lon="-1.22858">
        <ele>-3</ele>
        <time>2011-10-08T07:05:13Z</time>
      </trkpt>
      <trkpt lat="45.69854" lon="-1.22861">
        <ele>-1</ele>
        <time>2011-10-08T07:05:24Z</time>
      </trkpt>
      <trkpt lat="45.69845" lon="-1.22864">
        <ele>-1</ele>
        <time>2011-10-08T07:05:36Z</time>
      </trkpt>
      <trkpt lat="45.6984" lon="-1.22865">
        <ele>6.3</ele>
        <time>2011-10-08T07:05:41Z</time>
      </trkpt>
      <trkpt lat="45.69821" lon="-1.22871">
        <ele>6.3</ele>
        <time>2011-10-08T07:05:57Z</time>
      </trkpt>
      <trkpt lat="45.69811" lon="-1.22873">
        <ele>6.4</ele>
        <time>2011-10-08T07:06:07Z</time>
      </trkpt>
      <trkpt lat="45.69795" lon="-1.22876">
        <ele>5.9</ele>
        <time>2011-10-08T07:06:21Z</time>
      </trkpt>
      <trkpt lat="45.69783" lon="-1.2288">
        <ele>5.3</ele>
        <time>2011-10-08T07:06:31Z</time>
      </trkpt>
      <trkpt lat="45.69765" lon="-1.22889">
        <ele>1</ele>
        <time>2011-10-08T07:06:46Z</time>
      </trkpt>
      <trkpt lat="45.69763" lon="-1.22888">
        <ele>1</ele>
        <time>2011-10-08T07:06:58Z</time>
      </trkpt>
      <trkpt lat="45.69758" lon="-1.22881">
        <ele>2</ele>
        <time>2011-10-08T07:07:04Z</time>
      </trkpt>
      <trkpt lat="45.69753" lon="-1.22863">
        <ele>4.2</ele>
        <time>2011-10-08T07:07:17Z</time>
      </trkpt>
      <trkpt lat="45.69749" lon="-1.22856">
        <ele>-2</ele>
        <time>2011-10-08T07:07:23Z</time>
      </trkpt>
      <trkpt lat="45.69738" lon="-1.22842">
        <ele>-8</ele>
        <time>2011-10-08T07:07:38Z</time>
      </trkpt>
      <trkpt lat="45.69729" lon="-1.22827">
        <ele>-16</ele>
        <time>2011-10-08T07:07:52Z</time>
      </trkpt>
      <trkpt lat="45.69728" lon="-1.228">
        <ele>-27</ele>
        <time>2011-10-08T07:08:08Z</time>
      </trkpt>
      <trkpt lat="45.69728" lon="-1.22797">
        <ele>-28</ele>
        <time>2011-10-08T07:08:10Z</time>
      </trkpt>
      <trkpt lat="45.69728" lon="-1.22788">
        <ele>-31</ele>
        <time>2011-10-08T07:08:15Z</time>
      </trkpt>
      <trkpt lat="45.69728" lon="-1.22784">
        <ele>-31</ele>
        <time>2011-10-08T07:08:17Z</time>
      </trkpt>
      <trkpt lat="45.69727" lon="-1.22772">
        <ele>-34</ele>
        <time>2011-10-08T07:08:24Z</time>
      </trkpt>
      <trkpt lat="45.69726" lon="-1.22766">
        <ele>-36</ele>
        <time>2011-10-08T07:08:28Z</time>
      </trkpt>
      <trkpt lat="45.69728" lon="-1.22755">
        <ele>-39</ele>
        <time>2011-10-08T07:08:35Z</time>
      </trkpt>
      <trkpt lat="45.69724" lon="-1.22749">
        <ele>-41</ele>
        <time>2011-10-08T07:08:39Z</time>
      </trkpt>
      <trkpt lat="45.69717" lon="-1.22732">
        <ele>-45</ele>
        <time>2011-10-08T07:08:50Z</time>
      </trkpt>
      <trkpt lat="45.69714" lon="-1.22726">
        <ele>-47</ele>
        <time>2011-10-08T07:08:54Z</time>
      </trkpt>
      <trkpt lat="45.69712" lon="-1.22713">
        <ele>-52</ele>
        <time>2011-10-08T07:09:02Z</time>
      </trkpt>
      <trkpt lat="45.69711" lon="-1.22696">
        <ele>-60</ele>
        <time>2011-10-08T07:09:12Z</time>
      </trkpt>
      <trkpt lat="45.69709" lon="-1.22689">
        <ele>-62</ele>
        <time>2011-10-08T07:09:16Z</time>
      </trkpt>
      <trkpt lat="45.69708" lon="-1.22686">
        <ele>-62</ele>
        <time>2011-10-08T07:09:18Z</time>
      </trkpt>
      <trkpt lat="45.6971" lon="-1.22672">
        <ele>-63</ele>
        <time>2011-10-08T07:09:25Z</time>
      </trkpt>
      <trkpt lat="45.69713" lon="-1.22666">
        <ele>-63</ele>
        <time>2011-10-08T07:09:28Z</time>
      </trkpt>
      <trkpt lat="45.69717" lon="-1.22658">
        <ele>-62</ele>
        <time>2011-10-08T07:09:32Z</time>
      </trkpt>
      <trkpt lat="45.6972" lon="-1.22648">
        <ele>-62</ele>
        <time>2011-10-08T07:09:37Z</time>
      </trkpt>
      <trkpt lat="45.69728" lon="-1.22634">
        <ele>-64</ele>
        <time>2011-10-08T07:09:44Z</time>
      </trkpt>
      <trkpt lat="45.69736" lon="-1.22605">
        <ele>-67</ele>
        <time>2011-10-08T07:09:58Z</time>
      </trkpt>
      <trkpt lat="45.69733" lon="-1.22591">
        <ele>-65</ele>
        <time>2011-10-08T07:10:06Z</time>
      </trkpt>
      <trkpt lat="45.69732" lon="-1.22583">
        <ele>-63</ele>
        <time>2011-10-08T07:10:10Z</time>
      </trkpt>
      <trkpt lat="45.69728" lon="-1.22559">
        <ele>-60</ele>
        <time>2011-10-08T07:10:23Z</time>
      </trkpt>
      <trkpt lat="45.69727" lon="-1.22554">
        <ele>-59</ele>
        <time>2011-10-08T07:10:26Z</time>
      </trkpt>
      <trkpt lat="45.69723" lon="-1.2254">
        <ele>-55</ele>
        <time>2011-10-08T07:10:34Z</time>
      </trkpt>
      <trkpt lat="45.69722" lon="-1.22523">
        <ele>-53</ele>
        <time>2011-10-08T07:10:43Z</time>
      </trkpt>
      <trkpt lat="45.69724" lon="-1.2251">
        <ele>-51</ele>
        <time>2011-10-08T07:10:50Z</time>
      </trkpt>
      <trkpt lat="45.69719" lon="-1.22498">
        <ele>-47</ele>
        <time>2011-10-08T07:10:59Z</time>
      </trkpt>
      <trkpt lat="45.69713" lon="-1.22485">
        <ele>-45</ele>
        <time>2011-10-08T07:11:08Z</time>
      </trkpt>
      <trkpt lat="45.69711" lon="-1.22482">
        <ele>-46</ele>
        <time>2011-10-08T07:11:10Z</time>
      </trkpt>
      <trkpt lat="45.6971" lon="-1.22475">
        <ele>-46</ele>
        <time>2011-10-08T07:11:14Z</time>
      </trkpt>
      <trkpt lat="45.69703" lon="-1.22464">
        <ele>-48</ele>
        <time>2011-10-08T07:11:22Z</time>
      </trkpt>
      <trkpt lat="45.69705" lon="-1.22452">
        <ele>-47</ele>
        <time>2011-10-08T07:11:28Z</time>
      </trkpt>
      <trkpt lat="45.69704" lon="-1.22441">
        <ele>-47</ele>
        <time>2011-10-08T07:11:35Z</time>
      </trkpt>
      <trkpt lat="45.69702" lon="-1.22432">
        <ele>-46</ele>
        <time>2011-10-08T07:11:41Z</time>
      </trkpt>
      <trkpt lat="45.69698" lon="-1.22415">
        <ele>-46</ele>
        <time>2011-10-08T07:11:53Z</time>
      </trkpt>
      <trkpt lat="45.69698" lon="-1.22403">
        <ele>-48</ele>
        <time>2011-10-08T07:12:00Z</time>
      </trkpt>
      <trkpt lat="45.69699" lon="-1.22399">
        <ele>-49</ele>
        <time>2011-10-08T07:12:02Z</time>
      </trkpt>
      <trkpt lat="45.69699" lon="-1.2239">
        <ele>-48</ele>
        <time>2011-10-08T07:12:06Z</time>
      </trkpt>
      <trkpt lat="45.69698" lon="-1.22379">
        <ele>-48</ele>
        <time>2011-10-08T07:12:12Z</time>
      </trkpt>
      <trkpt lat="45.69696" lon="-1.22364">
        <ele>-50</ele>
        <time>2011-10-08T07:12:22Z</time>
      </trkpt>
      <trkpt lat="45.69697" lon="-1.22361">
        <ele>-50</ele>
        <time>2011-10-08T07:12:24Z</time>
      </trkpt>
      <trkpt lat="45.69699" lon="-1.22355">
        <ele>-51</ele>
        <time>2011-10-08T07:12:27Z</time>
      </trkpt>
      <trkpt lat="45.69699" lon="-1.22352">
        <ele>-51</ele>
        <time>2011-10-08T07:12:29Z</time>
      </trkpt>
      <trkpt lat="45.69694" lon="-1.2233">
        <ele>-52</ele>
        <time>2011-10-08T07:12:40Z</time>
      </trkpt>
      <trkpt lat="45.69685" lon="-1.22316">
        <ele>-51</ele>
        <time>2011-10-08T07:12:50Z</time>
      </trkpt>
      <trkpt lat="45.69684" lon="-1.22305">
        <ele>-51</ele>
        <time>2011-10-08T07:12:56Z</time>
      </trkpt>
      <trkpt lat="45.69687" lon="-1.22298">
        <ele>-51</ele>
        <time>2011-10-08T07:13:00Z</time>
      </trkpt>
      <trkpt lat="45.69685" lon="-1.22291">
        <ele>-52</ele>
        <time>2011-10-08T07:13:04Z</time>
      </trkpt>
      <trkpt lat="45.69683" lon="-1.22271">
        <ele>-56</ele>
        <time>2011-10-08T07:13:16Z</time>
      </trkpt>
      <trkpt lat="45.69687" lon="-1.22257">
        <ele>-59</ele>
        <time>2011-10-08T07:13:25Z</time>
      </trkpt>
      <trkpt lat="45.69689" lon="-1.22242">
        <ele>-61</ele>
        <time>2011-10-08T07:13:34Z</time>
      </trkpt>
      <trkpt lat="45.69689" lon="-1.2224">
        <ele>-62</ele>
        <time>2011-10-08T07:13:35Z</time>
      </trkpt>
      <trkpt lat="45.69685" lon="-1.22227">
        <ele>-62</ele>
        <time>2011-10-08T07:13:44Z</time>
      </trkpt>
      <trkpt lat="45.69683" lon="-1.22218">
        <ele>-62</ele>
        <time>2011-10-08T07:13:49Z</time>
      </trkpt>
      <trkpt lat="45.69683" lon="-1.22214">
        <ele>-61</ele>
        <time>2011-10-08T07:13:51Z</time>
      </trkpt>
      <trkpt lat="45.69683" lon="-1.22196">
        <ele>-61</ele>
        <time>2011-10-08T07:14:02Z</time>
      </trkpt>
      <trkpt lat="45.69684" lon="-1.2219">
        <ele>-61</ele>
        <time>2011-10-08T07:14:07Z</time>
      </trkpt>
      <trkpt lat="45.69684" lon="-1.22184">
        <ele>-62</ele>
        <time>2011-10-08T07:14:11Z</time>
      </trkpt>
      <trkpt lat="45.69669" lon="-1.22174">
        <ele>-64</ele>
        <time>2011-10-08T07:14:20Z</time>
      </trkpt>
      <trkpt lat="45.69666" lon="-1.22169">
        <ele>-65</ele>
        <time>2011-10-08T07:14:23Z</time>
      </trkpt>
      <trkpt lat="45.6967" lon="-1.2216">
        <ele>-64</ele>
        <time>2011-10-08T07:14:28Z</time>
      </trkpt>
      <trkpt lat="45.69648" lon="-1.22154">
        <ele>-51</ele>
        <time>2011-10-08T07:14:42Z</time>
      </trkpt>
      <trkpt lat="45.69644" lon="-1.22145">
        <ele>-48</ele>
        <time>2011-10-08T07:14:49Z</time>
      </trkpt>
      <trkpt lat="45.6965" lon="-1.22126">
        <ele>-46</ele>
        <time>2011-10-08T07:15:00Z</time>
      </trkpt>
      <trkpt lat="45.69649" lon="-1.22117">
        <ele>-46</ele>
        <time>2011-10-08T07:15:06Z</time>
      </trkpt>
      <trkpt lat="45.69649" lon="-1.22112">
        <ele>-45</ele>
        <time>2011-10-08T07:15:09Z</time>
      </trkpt>
      <trkpt lat="45.69661" lon="-1.22082">
        <ele>-34</ele>
        <time>2011-10-08T07:15:23Z</time>
      </trkpt>
      <trkpt lat="45.69667" lon="-1.2207">
        <ele>-32</ele>
        <time>2011-10-08T07:15:35Z</time>
      </trkpt>
      <trkpt lat="45.69671" lon="-1.22052">
        <ele>-31</ele>
        <time>2011-10-08T07:15:50Z</time>
      </trkpt>
      <trkpt lat="45.69671" lon="-1.2205">
        <ele>-32</ele>
        <time>2011-10-08T07:15:52Z</time>
      </trkpt>
      <trkpt lat="45.69669" lon="-1.22046">
        <ele>-32</ele>
        <time>2011-10-08T07:15:57Z</time>
      </trkpt>
      <trkpt lat="45.69671" lon="-1.22035">
        <ele>-35</ele>
        <time>2011-10-08T07:16:05Z</time>
      </trkpt>
      <trkpt lat="45.69677" lon="-1.22021">
        <ele>-34</ele>
        <time>2011-10-08T07:16:12Z</time>
      </trkpt>
      <trkpt lat="45.69691" lon="-1.21997">
        <ele>-31</ele>
        <time>2011-10-08T07:16:25Z</time>
      </trkpt>
      <trkpt lat="45.69696" lon="-1.21989">
        <ele>-30</ele>
        <time>2011-10-08T07:16:30Z</time>
      </trkpt>
      <trkpt lat="45.69706" lon="-1.21967">
        <ele>-27</ele>
        <time>2011-10-08T07:16:41Z</time>
      </trkpt>
      <trkpt lat="45.69707" lon="-1.21963">
        <ele>-27</ele>
        <time>2011-10-08T07:16:43Z</time>
      </trkpt>
      <trkpt lat="45.6971" lon="-1.21955">
        <ele>-27</ele>
        <time>2011-10-08T07:16:48Z</time>
      </trkpt>
      <trkpt lat="45.69711" lon="-1.21948">
        <ele>-26</ele>
        <time>2011-10-08T07:16:52Z</time>
      </trkpt>
      <trkpt lat="45.69716" lon="-1.2193">
        <ele>-27</ele>
        <time>2011-10-08T07:17:02Z</time>
      </trkpt>
      <trkpt lat="45.69721" lon="-1.21911">
        <ele>-26</ele>
        <time>2011-10-08T07:17:13Z</time>
      </trkpt>
      <trkpt lat="45.69723" lon="-1.21905">
        <ele>-25</ele>
        <time>2011-10-08T07:17:16Z</time>
      </trkpt>
      <trkpt lat="45.69727" lon="-1.2189">
        <ele>-24</ele>
        <time>2011-10-08T07:17:24Z</time>
      </trkpt>
      <trkpt lat="45.6973" lon="-1.21884">
        <ele>-24</ele>
        <time>2011-10-08T07:17:27Z</time>
      </trkpt>
      <trkpt lat="45.69732" lon="-1.21879">
        <ele>-23</ele>
        <time>2011-10-08T07:17:30Z</time>
      </trkpt>
      <trkpt lat="45.69738" lon="-1.21865">
        <ele>-21</ele>
        <time>2011-10-08T07:17:38Z</time>
      </trkpt>
      <trkpt lat="45.6974" lon="-1.21855">
        <ele>-20</ele>
        <time>2011-10-08T07:17:43Z</time>
      </trkpt>
      <trkpt lat="45.69745" lon="-1.2184">
        <ele>-19</ele>
        <time>2011-10-08T07:17:54Z</time>
      </trkpt>
      <trkpt lat="45.69743" lon="-1.21827">
        <ele>-21</ele>
        <time>2011-10-08T07:18:01Z</time>
      </trkpt>
      <trkpt lat="45.69742" lon="-1.21817">
        <ele>-23</ele>
        <time>2011-10-08T07:18:08Z</time>
      </trkpt>
      <trkpt lat="45.69745" lon="-1.21801">
        <ele>-23</ele>
        <time>2011-10-08T07:18:16Z</time>
      </trkpt>
      <trkpt lat="45.69748" lon="-1.21784">
        <ele>-24</ele>
        <time>2011-10-08T07:18:27Z</time>
      </trkpt>
      <trkpt lat="45.6975" lon="-1.21774">
        <ele>-23</ele>
        <time>2011-10-08T07:18:32Z</time>
      </trkpt>
      <trkpt lat="45.69752" lon="-1.21761">
        <ele>-21</ele>
        <time>2011-10-08T07:18:38Z</time>
      </trkpt>
      <trkpt lat="45.69757" lon="-1.21749">
        <ele>-18</ele>
        <time>2011-10-08T07:18:44Z</time>
      </trkpt>
      <trkpt lat="45.69759" lon="-1.2173">
        <ele>-18</ele>
        <time>2011-10-08T07:18:56Z</time>
      </trkpt>
      <trkpt lat="45.69759" lon="-1.21728">
        <ele>-18</ele>
        <time>2011-10-08T07:18:57Z</time>
      </trkpt>
      <trkpt lat="45.69761" lon="-1.21716">
        <ele>-20</ele>
        <time>2011-10-08T07:19:04Z</time>
      </trkpt>
      <trkpt lat="45.69762" lon="-1.21713">
        <ele>-20</ele>
        <time>2011-10-08T07:19:06Z</time>
      </trkpt>
      <trkpt lat="45.69762" lon="-1.21707">
        <ele>-21</ele>
        <time>2011-10-08T07:19:10Z</time>
      </trkpt>
      <trkpt lat="45.69766" lon="-1.21684">
        <ele>-19</ele>
        <time>2011-10-08T07:19:22Z</time>
      </trkpt>
      <trkpt lat="45.69763" lon="-1.21671">
        <ele>-19</ele>
        <time>2011-10-08T07:19:29Z</time>
      </trkpt>
      <trkpt lat="45.6976" lon="-1.21664">
        <ele>-20</ele>
        <time>2011-10-08T07:19:34Z</time>
      </trkpt>
      <trkpt lat="45.69757" lon="-1.21655">
        <ele>-22</ele>
        <time>2011-10-08T07:19:40Z</time>
      </trkpt>
      <trkpt lat="45.69746" lon="-1.21639">
        <ele>-27</ele>
        <time>2011-10-08T07:19:52Z</time>
      </trkpt>
      <trkpt lat="45.69736" lon="-1.21627">
        <ele>-31</ele>
        <time>2011-10-08T07:20:02Z</time>
      </trkpt>
      <trkpt lat="45.69737" lon="-1.21618">
        <ele>-31</ele>
        <time>2011-10-08T07:20:07Z</time>
      </trkpt>
      <trkpt lat="45.69726" lon="-1.21601">
        <ele>-28</ele>
        <time>2011-10-08T07:20:20Z</time>
      </trkpt>
      <trkpt lat="45.6972" lon="-1.21586">
        <ele>-27</ele>
        <time>2011-10-08T07:20:31Z</time>
      </trkpt>
      <trkpt lat="45.69719" lon="-1.21584">
        <ele>-27</ele>
        <time>2011-10-08T07:20:33Z</time>
      </trkpt>
      <trkpt lat="45.69721" lon="-1.21574">
        <ele>-24</ele>
        <time>2011-10-08T07:20:39Z</time>
      </trkpt>
      <trkpt lat="45.69726" lon="-1.21564">
        <ele>-21</ele>
        <time>2011-10-08T07:20:43Z</time>
      </trkpt>
      <trkpt lat="45.69746" lon="-1.21527">
        <ele>-16</ele>
        <time>2011-10-08T07:20:57Z</time>
      </trkpt>
      <trkpt lat="45.69747" lon="-1.215">
        <ele>-9</ele>
        <time>2011-10-08T07:21:11Z</time>
      </trkpt>
      <trkpt lat="45.69747" lon="-1.21487">
        <ele>-6</ele>
        <time>2011-10-08T07:21:19Z</time>
      </trkpt>
      <trkpt lat="45.69748" lon="-1.21471">
        <ele>-5</ele>
        <time>2011-10-08T07:21:30Z</time>
      </trkpt>
      <trkpt lat="45.69749" lon="-1.21461">
        <ele>-2</ele>
        <time>2011-10-08T07:21:40Z</time>
      </trkpt>
      <trkpt lat="45.69752" lon="-1.21455">
        <ele>6</ele>
        <time>2011-10-08T07:21:45Z</time>
      </trkpt>
      <trkpt lat="45.69759" lon="-1.21436">
        <ele>3</ele>
        <time>2011-10-08T07:21:57Z</time>
      </trkpt>
      <trkpt lat="45.69767" lon="-1.21425">
        <ele>5</ele>
        <time>2011-10-08T07:22:09Z</time>
      </trkpt>
      <trkpt lat="45.69773" lon="-1.21416">
        <ele>6</ele>
        <time>2011-10-08T07:22:19Z</time>
      </trkpt>
      <trkpt lat="45.69773" lon="-1.21412">
        <ele>7</ele>
        <time>2011-10-08T07:22:22Z</time>
      </trkpt>
      <trkpt lat="45.69778" lon="-1.21401">
        <ele>6</ele>
        <time>2011-10-08T07:22:30Z</time>
      </trkpt>
      <trkpt lat="45.69793" lon="-1.21387">
        <ele>7</ele>
        <time>2011-10-08T07:22:43Z</time>
      </trkpt>
      <trkpt lat="45.69798" lon="-1.2138">
        <ele>7</ele>
        <time>2011-10-08T07:22:52Z</time>
      </trkpt>
      <trkpt lat="45.69804" lon="-1.21369">
        <ele>8</ele>
        <time>2011-10-08T07:23:03Z</time>
      </trkpt>
      <trkpt lat="45.69805" lon="-1.21367">
        <ele>8</ele>
        <time>2011-10-08T07:23:04Z</time>
      </trkpt>
      <trkpt lat="45.69806" lon="-1.21343">
        <ele>9</ele>
        <time>2011-10-08T07:23:19Z</time>
      </trkpt>
      <trkpt lat="45.69806" lon="-1.21336">
        <ele>9</ele>
        <time>2011-10-08T07:23:24Z</time>
      </trkpt>
      <trkpt lat="45.69811" lon="-1.21325">
        <ele>10</ele>
        <time>2011-10-08T07:23:39Z</time>
      </trkpt>
      <trkpt lat="45.69818" lon="-1.21326">
        <ele>11</ele>
        <time>2011-10-08T07:23:48Z</time>
      </trkpt>
      <trkpt lat="45.69825" lon="-1.21331">
        <ele>11</ele>
        <time>2011-10-08T07:23:56Z</time>
      </trkpt>
      <trkpt lat="45.69833" lon="-1.21329">
        <ele>11</ele>
        <time>2011-10-08T07:24:05Z</time>
      </trkpt>
      <trkpt lat="45.69834" lon="-1.2133">
        <ele>11</ele>
        <time>2011-10-08T07:24:07Z</time>
      </trkpt>
      <trkpt lat="45.69846" lon="-1.21334">
        <ele>9</ele>
        <time>2011-10-08T07:24:19Z</time>
      </trkpt>
      <trkpt lat="45.69857" lon="-1.2134">
        <ele>5</ele>
        <time>2011-10-08T07:24:28Z</time>
      </trkpt>
      <trkpt lat="45.69868" lon="-1.21349">
        <ele>4</ele>
        <time>2011-10-08T07:24:40Z</time>
      </trkpt>
      <trkpt lat="45.69876" lon="-1.21359">
        <ele>2</ele>
        <time>2011-10-08T07:24:50Z</time>
      </trkpt>
      <trkpt lat="45.69882" lon="-1.21365">
        <ele>9.2</ele>
        <time>2011-10-08T07:24:57Z</time>
      </trkpt>
      <trkpt lat="45.69895" lon="-1.21378">
        <ele>-4</ele>
        <time>2011-10-08T07:25:11Z</time>
      </trkpt>
      <trkpt lat="45.69911" lon="-1.21388">
        <ele>-4</ele>
        <time>2011-10-08T07:25:25Z</time>
      </trkpt>
      <trkpt lat="45.6992" lon="-1.21392">
        <ele>-4</ele>
        <time>2011-10-08T07:25:32Z</time>
      </trkpt>
      <trkpt lat="45.69937" lon="-1.21395">
        <ele>-3</ele>
        <time>2011-10-08T07:25:45Z</time>
      </trkpt>
      <trkpt lat="45.69955" lon="-1.21396">
        <ele>6.9</ele>
        <time>2011-10-08T07:25:59Z</time>
      </trkpt>
      <trkpt lat="45.69974" lon="-1.21396">
        <ele>3</ele>
        <time>2011-10-08T07:26:13Z</time>
      </trkpt>
      <trkpt lat="45.69993" lon="-1.21396">
        <ele>4</ele>
        <time>2011-10-08T07:26:27Z</time>
      </trkpt>
      <trkpt lat="45.70011" lon="-1.21396">
        <ele>6</ele>
        <time>2011-10-08T07:26:42Z</time>
      </trkpt>
      <trkpt lat="45.70024" lon="-1.21395">
        <ele>7</ele>
        <time>2011-10-08T07:26:53Z</time>
      </trkpt>
      <trkpt lat="45.70043" lon="-1.21396">
        <ele>7</ele>
        <time>2011-10-08T07:27:07Z</time>
      </trkpt>
      <trkpt lat="45.70056" lon="-1.21394">
        <ele>7</ele>
        <time>2011-10-08T07:27:18Z</time>
      </trkpt>
      <trkpt lat="45.70076" lon="-1.21395">
        <ele>6</ele>
        <time>2011-10-08T07:27:33Z</time>
      </trkpt>
      <trkpt lat="45.70093" lon="-1.21395">
        <ele>7</ele>
        <time>2011-10-08T07:27:46Z</time>
      </trkpt>
      <trkpt lat="45.7011" lon="-1.21395">
        <ele>7</ele>
        <time>2011-10-08T07:27:59Z</time>
      </trkpt>
      <trkpt lat="45.70124" lon="-1.21395">
        <ele>7</ele>
        <time>2011-10-08T07:28:11Z</time>
      </trkpt>
      <trkpt lat="45.70138" lon="-1.21397">
        <ele>9</ele>
        <time>2011-10-08T07:28:22Z</time>
      </trkpt>
      <trkpt lat="45.70154" lon="-1.21396">
        <ele>9</ele>
        <time>2011-10-08T07:28:34Z</time>
      </trkpt>
      <trkpt lat="45.70156" lon="-1.21396">
        <ele>8</ele>
        <time>2011-10-08T07:28:40Z</time>
      </trkpt>
      <trkpt lat="45.70165" lon="-1.21394">
        <ele>9</ele>
        <time>2011-10-08T07:28:50Z</time>
      </trkpt>
      <trkpt lat="45.70163" lon="-1.21388">
        <ele>9</ele>
        <time>2011-10-08T07:29:00Z</time>
      </trkpt>
      <trkpt lat="45.70157" lon="-1.21379">
        <ele>7</ele>
        <time>2011-10-08T07:29:10Z</time>
      </trkpt>
      <trkpt lat="45.70151" lon="-1.2137">
        <ele>5</ele>
        <time>2011-10-08T07:29:19Z</time>
      </trkpt>
      <trkpt lat="45.70145" lon="-1.21363">
        <ele>3</ele>
        <time>2011-10-08T07:29:26Z</time>
      </trkpt>
      <trkpt lat="45.70141" lon="-1.21358">
        <ele>1</ele>
        <time>2011-10-08T07:29:31Z</time>
      </trkpt>
      <trkpt lat="45.70132" lon="-1.21346">
        <ele>-7</ele>
        <time>2011-10-08T07:29:43Z</time>
      </trkpt>
      <trkpt lat="45.70128" lon="-1.21331">
        <ele>-14</ele>
        <time>2011-10-08T07:29:54Z</time>
      </trkpt>
      <trkpt lat="45.70127" lon="-1.21326">
        <ele>-16</ele>
        <time>2011-10-08T07:29:57Z</time>
      </trkpt>
      <trkpt lat="45.70125" lon="-1.2132">
        <ele>-17</ele>
        <time>2011-10-08T07:30:01Z</time>
      </trkpt>
      <trkpt lat="45.70124" lon="-1.2131">
        <ele>-21</ele>
        <time>2011-10-08T07:30:07Z</time>
      </trkpt>
      <trkpt lat="45.70117" lon="-1.21291">
        <ele>-21</ele>
        <time>2011-10-08T07:30:19Z</time>
      </trkpt>
      <trkpt lat="45.70115" lon="-1.21284">
        <ele>-18</ele>
        <time>2011-10-08T07:30:24Z</time>
      </trkpt>
      <trkpt lat="45.70107" lon="-1.21266">
        <ele>-12</ele>
        <time>2011-10-08T07:30:36Z</time>
      </trkpt>
      <trkpt lat="45.70096" lon="-1.21248">
        <ele>-8</ele>
        <time>2011-10-08T07:30:49Z</time>
      </trkpt>
      <trkpt lat="45.70092" lon="-1.21234">
        <ele>-6</ele>
        <time>2011-10-08T07:30:59Z</time>
      </trkpt>
      <trkpt lat="45.70084" lon="-1.21215">
        <ele>-4</ele>
        <time>2011-10-08T07:31:12Z</time>
      </trkpt>
      <trkpt lat="45.70078" lon="-1.212">
        <ele>-4</ele>
        <time>2011-10-08T07:31:24Z</time>
      </trkpt>
      <trkpt lat="45.70074" lon="-1.21191">
        <ele>-4</ele>
        <time>2011-10-08T07:31:32Z</time>
      </trkpt>
      <trkpt lat="45.70068" lon="-1.21179">
        <ele>-2</ele>
        <time>2011-10-08T07:31:42Z</time>
      </trkpt>
      <trkpt lat="45.70067" lon="-1.21176">
        <ele>-1</ele>
        <time>2011-10-08T07:31:44Z</time>
      </trkpt>
      <trkpt lat="45.70064" lon="-1.21169">
        <ele>11.9</ele>
        <time>2011-10-08T07:31:49Z</time>
      </trkpt>
      <trkpt lat="45.7006" lon="-1.21161">
        <ele>1</ele>
        <time>2011-10-08T07:31:56Z</time>
      </trkpt>
      <trkpt lat="45.70053" lon="-1.21152">
        <ele>1</ele>
        <time>2011-10-08T07:32:03Z</time>
      </trkpt>
      <trkpt lat="45.70049" lon="-1.21143">
        <ele>1</ele>
        <time>2011-10-08T07:32:10Z</time>
      </trkpt>
      <trkpt lat="45.70048" lon="-1.21135">
        <ele>1</ele>
        <time>2011-10-08T07:32:15Z</time>
      </trkpt>
      <trkpt lat="45.70045" lon="-1.2112">
        <ele>12.1</ele>
        <time>2011-10-08T07:32:23Z</time>
      </trkpt>
      <trkpt lat="45.70043" lon="-1.21113">
        <ele>-2</ele>
        <time>2011-10-08T07:32:28Z</time>
      </trkpt>
      <trkpt lat="45.70038" lon="-1.21101">
        <ele>-4</ele>
        <time>2011-10-08T07:32:37Z</time>
      </trkpt>
      <trkpt lat="45.70036" lon="-1.21093">
        <ele>-5</ele>
        <time>2011-10-08T07:32:43Z</time>
      </trkpt>
      <trkpt lat="45.70033" lon="-1.2109">
        <ele>-5</ele>
        <time>2011-10-08T07:32:46Z</time>
      </trkpt>
      <trkpt lat="45.7003" lon="-1.21084">
        <ele>-5</ele>
        <time>2011-10-08T07:32:50Z</time>
      </trkpt>
      <trkpt lat="45.70027" lon="-1.21076">
        <ele>-6</ele>
        <time>2011-10-08T07:32:55Z</time>
      </trkpt>
      <trkpt lat="45.70019" lon="-1.21071">
        <ele>-7</ele>
        <time>2011-10-08T07:33:02Z</time>
      </trkpt>
      <trkpt lat="45.70019" lon="-1.21067">
        <ele>-8</ele>
        <time>2011-10-08T07:33:04Z</time>
      </trkpt>
      <trkpt lat="45.70017" lon="-1.21064">
        <ele>-9</ele>
        <time>2011-10-08T07:33:07Z</time>
      </trkpt>
      <trkpt lat="45.70005" lon="-1.21056">
        <ele>-10</ele>
        <time>2011-10-08T07:33:16Z</time>
      </trkpt>
      <trkpt lat="45.70002" lon="-1.21045">
        <ele>-11</ele>
        <time>2011-10-08T07:33:23Z</time>
      </trkpt>
      <trkpt lat="45.70002" lon="-1.21032">
        <ele>-13</ele>
        <time>2011-10-08T07:33:31Z</time>
      </trkpt>
      <trkpt lat="45.69997" lon="-1.21023">
        <ele>-13</ele>
        <time>2011-10-08T07:33:38Z</time>
      </trkpt>
      <trkpt lat="45.69996" lon="-1.21014">
        <ele>-14</ele>
        <time>2011-10-08T07:33:44Z</time>
      </trkpt>
      <trkpt lat="45.69995" lon="-1.20995">
        <ele>-16</ele>
        <time>2011-10-08T07:33:56Z</time>
      </trkpt>
      <trkpt lat="45.69994" lon="-1.20994">
        <ele>-17</ele>
        <time>2011-10-08T07:33:57Z</time>
      </trkpt>
      <trkpt lat="45.69984" lon="-1.20984">
        <ele>-20</ele>
        <time>2011-10-08T07:34:08Z</time>
      </trkpt>
      <trkpt lat="45.69976" lon="-1.20971">
        <ele>-23</ele>
        <time>2011-10-08T07:34:18Z</time>
      </trkpt>
      <trkpt lat="45.69973" lon="-1.20962">
        <ele>-24</ele>
        <time>2011-10-08T07:34:25Z</time>
      </trkpt>
      <trkpt lat="45.69973" lon="-1.20961">
        <ele>-24</ele>
        <time>2011-10-08T07:34:26Z</time>
      </trkpt>
      <trkpt lat="45.6997" lon="-1.2095">
        <ele>-25</ele>
        <time>2011-10-08T07:34:33Z</time>
      </trkpt>
      <trkpt lat="45.69966" lon="-1.20931">
        <ele>-23</ele>
        <time>2011-10-08T07:34:44Z</time>
      </trkpt>
      <trkpt lat="45.6996" lon="-1.2091">
        <ele>-19</ele>
        <time>2011-10-08T07:34:57Z</time>
      </trkpt>
      <trkpt lat="45.69955" lon="-1.20894">
        <ele>-16</ele>
        <time>2011-10-08T07:35:07Z</time>
      </trkpt>
      <trkpt lat="45.69954" lon="-1.20884">
        <ele>-15</ele>
        <time>2011-10-08T07:35:12Z</time>
      </trkpt>
      <trkpt lat="45.69947" lon="-1.20866">
        <ele>-13</ele>
        <time>2011-10-08T07:35:23Z</time>
      </trkpt>
      <trkpt lat="45.69945" lon="-1.20863">
        <ele>-12</ele>
        <time>2011-10-08T07:35:26Z</time>
      </trkpt>
      <trkpt lat="45.6994" lon="-1.20843">
        <ele>-9</ele>
        <time>2011-10-08T07:35:38Z</time>
      </trkpt>
      <trkpt lat="45.69936" lon="-1.2082">
        <ele>-7</ele>
        <time>2011-10-08T07:35:52Z</time>
      </trkpt>
      <trkpt lat="45.69935" lon="-1.20816">
        <ele>-7</ele>
        <time>2011-10-08T07:35:55Z</time>
      </trkpt>
      <trkpt lat="45.6993" lon="-1.20805">
        <ele>-3</ele>
        <time>2011-10-08T07:36:04Z</time>
      </trkpt>
      <trkpt lat="45.6993" lon="-1.20795">
        <ele>-4</ele>
        <time>2011-10-08T07:36:14Z</time>
      </trkpt>
      <trkpt lat="45.69933" lon="-1.20784">
        <ele>-2</ele>
        <time>2011-10-08T07:36:21Z</time>
      </trkpt>
      <trkpt lat="45.69942" lon="-1.20771">
        <ele>9.5</ele>
        <time>2011-10-08T07:36:32Z</time>
      </trkpt>
      <trkpt lat="45.69952" lon="-1.20769">
        <ele>9.3</ele>
        <time>2011-10-08T07:36:45Z</time>
      </trkpt>
      <trkpt lat="45.69954" lon="-1.20768">
        <ele>9.1</ele>
        <time>2011-10-08T07:36:48Z</time>
      </trkpt>
      <trkpt lat="45.69954" lon="-1.20767">
        <ele>9.1</ele>
        <time>2011-10-08T07:36:51Z</time>
      </trkpt>
      <trkpt lat="45.69961" lon="-1.20765">
        <ele>2</ele>
        <time>2011-10-08T07:36:57Z</time>
      </trkpt>
      <trkpt lat="45.69968" lon="-1.20762">
        <ele>2</ele>
        <time>2011-10-08T07:37:02Z</time>
      </trkpt>
      <trkpt lat="45.69972" lon="-1.20747">
        <ele>3</ele>
        <time>2011-10-08T07:37:13Z</time>
      </trkpt>
      <trkpt lat="45.69974" lon="-1.20739">
        <ele>3</ele>
        <time>2011-10-08T07:37:18Z</time>
      </trkpt>
      <trkpt lat="45.69977" lon="-1.20734">
        <ele>3</ele>
        <time>2011-10-08T07:37:22Z</time>
      </trkpt>
      <trkpt lat="45.69993" lon="-1.20729">
        <ele>3</ele>
        <time>2011-10-08T07:37:34Z</time>
      </trkpt>
      <trkpt lat="45.70008" lon="-1.20727">
        <ele>3</ele>
        <time>2011-10-08T07:37:47Z</time>
      </trkpt>
      <trkpt lat="45.7001" lon="-1.20727">
        <ele>3</ele>
        <time>2011-10-08T07:37:49Z</time>
      </trkpt>
      <trkpt lat="45.70019" lon="-1.20727">
        <ele>3</ele>
        <time>2011-10-08T07:37:58Z</time>
      </trkpt>
      <trkpt lat="45.70025" lon="-1.20727">
        <ele>2</ele>
        <time>2011-10-08T07:38:04Z</time>
      </trkpt>
      <trkpt lat="45.70037" lon="-1.20726">
        <ele>2</ele>
        <time>2011-10-08T07:38:16Z</time>
      </trkpt>
      <trkpt lat="45.7005" lon="-1.20725">
        <ele>-1</ele>
        <time>2011-10-08T07:38:27Z</time>
      </trkpt>
      <trkpt lat="45.70064" lon="-1.20724">
        <ele>6.1</ele>
        <time>2011-10-08T07:38:41Z</time>
      </trkpt>
      <trkpt lat="45.70067" lon="-1.20724">
        <ele>6.1</ele>
        <time>2011-10-08T07:38:44Z</time>
      </trkpt>
      <trkpt lat="45.7008" lon="-1.20723">
        <ele>2</ele>
        <time>2011-10-08T07:38:57Z</time>
      </trkpt>
      <trkpt lat="45.70095" lon="-1.20721">
        <ele>3</ele>
        <time>2011-10-08T07:39:09Z</time>
      </trkpt>
      <trkpt lat="45.70106" lon="-1.20716">
        <ele>2</ele>
        <time>2011-10-08T07:39:21Z</time>
      </trkpt>
      <trkpt lat="45.70119" lon="-1.20704">
        <ele>3</ele>
        <time>2011-10-08T07:39:34Z</time>
      </trkpt>
      <trkpt lat="45.7013" lon="-1.20693">
        <ele>4</ele>
        <time>2011-10-08T07:39:48Z</time>
      </trkpt>
      <trkpt lat="45.70139" lon="-1.2068">
        <ele>4</ele>
        <time>2011-10-08T07:40:01Z</time>
      </trkpt>
      <trkpt lat="45.70138" lon="-1.20679">
        <ele>4</ele>
        <time>2011-10-08T07:40:06Z</time>
      </trkpt>
      <trkpt lat="45.70144" lon="-1.20673">
        <ele>3</ele>
        <time>2011-10-08T07:40:10Z</time>
      </trkpt>
      <trkpt lat="45.7015" lon="-1.20666">
        <ele>2</ele>
        <time>2011-10-08T07:40:16Z</time>
      </trkpt>
      <trkpt lat="45.70157" lon="-1.20658">
        <ele>2</ele>
        <time>2011-10-08T07:40:25Z</time>
      </trkpt>
      <trkpt lat="45.70168" lon="-1.20657">
        <ele>3</ele>
        <time>2011-10-08T07:40:37Z</time>
      </trkpt>
      <trkpt lat="45.70179" lon="-1.20658">
        <ele>2</ele>
        <time>2011-10-08T07:40:48Z</time>
      </trkpt>
      <trkpt lat="45.70193" lon="-1.20661">
        <ele>13</ele>
        <time>2011-10-08T07:40:57Z</time>
      </trkpt>
      <trkpt lat="45.70194" lon="-1.20661">
        <ele>13</ele>
        <time>2011-10-08T07:40:58Z</time>
      </trkpt>
      <trkpt lat="45.70196" lon="-1.20661">
        <ele>14</ele>
        <time>2011-10-08T07:41:00Z</time>
      </trkpt>
      <trkpt lat="45.70207" lon="-1.20653">
        <ele>13</ele>
        <time>2011-10-08T07:41:12Z</time>
      </trkpt>
      <trkpt lat="45.70217" lon="-1.20645">
        <ele>12</ele>
        <time>2011-10-08T07:41:23Z</time>
      </trkpt>
      <trkpt lat="45.70219" lon="-1.20643">
        <ele>11</ele>
        <time>2011-10-08T07:41:25Z</time>
      </trkpt>
      <trkpt lat="45.70233" lon="-1.20631">
        <ele>8</ele>
        <time>2011-10-08T07:41:39Z</time>
      </trkpt>
      <trkpt lat="45.70236" lon="-1.20629">
        <ele>8</ele>
        <time>2011-10-08T07:41:42Z</time>
      </trkpt>
      <trkpt lat="45.70249" lon="-1.20628">
        <ele>7</ele>
        <time>2011-10-08T07:41:56Z</time>
      </trkpt>
      <trkpt lat="45.70263" lon="-1.20629">
        <ele>6</ele>
        <time>2011-10-08T07:42:06Z</time>
      </trkpt>
      <trkpt lat="45.70271" lon="-1.20629">
        <ele>5</ele>
        <time>2011-10-08T07:42:13Z</time>
      </trkpt>
      <trkpt lat="45.70273" lon="-1.2063">
        <ele>5</ele>
        <time>2011-10-08T07:42:15Z</time>
      </trkpt>
      <trkpt lat="45.70282" lon="-1.2063">
        <ele>4</ele>
        <time>2011-10-08T07:42:23Z</time>
      </trkpt>
      <trkpt lat="45.70298" lon="-1.20633">
        <ele>1</ele>
        <time>2011-10-08T07:42:37Z</time>
      </trkpt>
      <trkpt lat="45.70302" lon="-1.20635">
        <ele>-1</ele>
        <time>2011-10-08T07:42:43Z</time>
      </trkpt>
      <trkpt lat="45.70306" lon="-1.20636">
        <ele>-1</ele>
        <time>2011-10-08T07:42:46Z</time>
      </trkpt>
      <trkpt lat="45.70308" lon="-1.20637">
        <ele>-1</ele>
        <time>2011-10-08T07:42:48Z</time>
      </trkpt>
      <trkpt lat="45.70318" lon="-1.20642">
        <ele>-3</ele>
        <time>2011-10-08T07:42:59Z</time>
      </trkpt>
      <trkpt lat="45.70326" lon="-1.20647">
        <ele>-4</ele>
        <time>2011-10-08T07:43:08Z</time>
      </trkpt>
      <trkpt lat="45.70338" lon="-1.20653">
        <ele>-4</ele>
        <time>2011-10-08T07:43:19Z</time>
      </trkpt>
      <trkpt lat="45.70348" lon="-1.20658">
        <ele>-4</ele>
        <time>2011-10-08T07:43:29Z</time>
      </trkpt>
      <trkpt lat="45.70358" lon="-1.20665">
        <ele>-5</ele>
        <time>2011-10-08T07:43:39Z</time>
      </trkpt>
      <trkpt lat="45.70366" lon="-1.2067">
        <ele>-6</ele>
        <time>2011-10-08T07:43:46Z</time>
      </trkpt>
      <trkpt lat="45.7038" lon="-1.20673">
        <ele>-5</ele>
        <time>2011-10-08T07:43:58Z</time>
      </trkpt>
      <trkpt lat="45.70389" lon="-1.20679">
        <ele>-6</ele>
        <time>2011-10-08T07:44:09Z</time>
      </trkpt>
      <trkpt lat="45.70392" lon="-1.20681">
        <ele>-7</ele>
        <time>2011-10-08T07:44:12Z</time>
      </trkpt>
      <trkpt lat="45.70404" lon="-1.20687">
        <ele>-7</ele>
        <time>2011-10-08T07:44:23Z</time>
      </trkpt>
      <trkpt lat="45.70413" lon="-1.2069">
        <ele>-8</ele>
        <time>2011-10-08T07:44:31Z</time>
      </trkpt>
      <trkpt lat="45.70426" lon="-1.20693">
        <ele>-7</ele>
        <time>2011-10-08T07:44:42Z</time>
      </trkpt>
      <trkpt lat="45.70436" lon="-1.20694">
        <ele>-8</ele>
        <time>2011-10-08T07:44:52Z</time>
      </trkpt>
      <trkpt lat="45.70445" lon="-1.20693">
        <ele>-10</ele>
        <time>2011-10-08T07:45:02Z</time>
      </trkpt>
      <trkpt lat="45.70449" lon="-1.20693">
        <ele>-10</ele>
        <time>2011-10-08T07:45:08Z</time>
      </trkpt>
      <trkpt lat="45.7046" lon="-1.20692">
        <ele>-11</ele>
        <time>2011-10-08T07:45:16Z</time>
      </trkpt>
      <trkpt lat="45.7047" lon="-1.20691">
        <ele>-12</ele>
        <time>2011-10-08T07:45:26Z</time>
      </trkpt>
      <trkpt lat="45.70483" lon="-1.20686">
        <ele>-11</ele>
        <time>2011-10-08T07:45:36Z</time>
      </trkpt>
      <trkpt lat="45.70488" lon="-1.20686">
        <ele>-9</ele>
        <time>2011-10-08T07:45:41Z</time>
      </trkpt>
      <trkpt lat="45.70499" lon="-1.20687">
        <ele>-9</ele>
        <time>2011-10-08T07:45:51Z</time>
      </trkpt>
      <trkpt lat="45.70509" lon="-1.20688">
        <ele>-11</ele>
        <time>2011-10-08T07:46:00Z</time>
      </trkpt>
      <trkpt lat="45.70515" lon="-1.20689">
        <ele>-11</ele>
        <time>2011-10-08T07:46:05Z</time>
      </trkpt>
      <trkpt lat="45.7052" lon="-1.20692">
        <ele>-13</ele>
        <time>2011-10-08T07:46:09Z</time>
      </trkpt>
      <trkpt lat="45.70523" lon="-1.20692">
        <ele>-12</ele>
        <time>2011-10-08T07:46:11Z</time>
      </trkpt>
      <trkpt lat="45.70531" lon="-1.20694">
        <ele>-10</ele>
        <time>2011-10-08T07:46:18Z</time>
      </trkpt>
      <trkpt lat="45.70534" lon="-1.20696">
        <ele>-10</ele>
        <time>2011-10-08T07:46:20Z</time>
      </trkpt>
      <trkpt lat="45.70535" lon="-1.20699">
        <ele>-10</ele>
        <time>2011-10-08T07:46:23Z</time>
      </trkpt>
      <trkpt lat="45.70547" lon="-1.207">
        <ele>-9</ele>
        <time>2011-10-08T07:46:34Z</time>
      </trkpt>
      <trkpt lat="45.70553" lon="-1.20702">
        <ele>-8</ele>
        <time>2011-10-08T07:46:41Z</time>
      </trkpt>
      <trkpt lat="45.70564" lon="-1.207">
        <ele>-6</ele>
        <time>2011-10-08T07:46:52Z</time>
      </trkpt>
      <trkpt lat="45.70573" lon="-1.20689">
        <ele>-6</ele>
        <time>2011-10-08T07:47:07Z</time>
      </trkpt>
      <trkpt lat="45.70581" lon="-1.20676">
        <ele>-7</ele>
        <time>2011-10-08T07:47:19Z</time>
      </trkpt>
      <trkpt lat="45.70584" lon="-1.20673">
        <ele>-7</ele>
        <time>2011-10-08T07:47:23Z</time>
      </trkpt>
      <trkpt lat="45.70593" lon="-1.20657">
        <ele>-6</ele>
        <time>2011-10-08T07:47:35Z</time>
      </trkpt>
      <trkpt lat="45.70608" lon="-1.2064">
        <ele>-3</ele>
        <time>2011-10-08T07:47:50Z</time>
      </trkpt>
      <trkpt lat="45.7061" lon="-1.20639">
        <ele>-3</ele>
        <time>2011-10-08T07:47:51Z</time>
      </trkpt>
      <trkpt lat="45.70614" lon="-1.20635">
        <ele>-3</ele>
        <time>2011-10-08T07:47:55Z</time>
      </trkpt>
      <trkpt lat="45.70627" lon="-1.20622">
        <ele>7.7</ele>
        <time>2011-10-08T07:48:09Z</time>
      </trkpt>
      <trkpt lat="45.7063" lon="-1.2062">
        <ele>7.5</ele>
        <time>2011-10-08T07:48:13Z</time>
      </trkpt>
      <trkpt lat="45.70637" lon="-1.20611">
        <ele>-1</ele>
        <time>2011-10-08T07:48:21Z</time>
      </trkpt>
      <trkpt lat="45.70643" lon="-1.20604">
        <ele>6.9</ele>
        <time>2011-10-08T07:48:28Z</time>
      </trkpt>
      <trkpt lat="45.70649" lon="-1.20599">
        <ele>1</ele>
        <time>2011-10-08T07:48:35Z</time>
      </trkpt>
      <trkpt lat="45.70654" lon="-1.20594">
        <ele>2</ele>
        <time>2011-10-08T07:48:40Z</time>
      </trkpt>
      <trkpt lat="45.70655" lon="-1.20592">
        <ele>2</ele>
        <time>2011-10-08T07:48:42Z</time>
      </trkpt>
      <trkpt lat="45.70656" lon="-1.20588">
        <ele>2</ele>
        <time>2011-10-08T07:48:45Z</time>
      </trkpt>
      <trkpt lat="45.70658" lon="-1.20587">
        <ele>4</ele>
        <time>2011-10-08T07:48:56Z</time>
      </trkpt>
      <trkpt lat="45.70662" lon="-1.20581">
        <ele>4</ele>
        <time>2011-10-08T07:49:14Z</time>
      </trkpt>
      <trkpt lat="45.70671" lon="-1.2057">
        <ele>4</ele>
        <time>2011-10-08T07:49:28Z</time>
      </trkpt>
      <trkpt lat="45.70677" lon="-1.20563">
        <ele>4</ele>
        <time>2011-10-08T07:49:36Z</time>
      </trkpt>
      <trkpt lat="45.70683" lon="-1.20554">
        <ele>5</ele>
        <time>2011-10-08T07:49:47Z</time>
      </trkpt>
      <trkpt lat="45.70688" lon="-1.20548">
        <ele>6</ele>
        <time>2011-10-08T07:50:15Z</time>
      </trkpt>
      <trkpt lat="45.70689" lon="-1.20547">
        <ele>5</ele>
        <time>2011-10-08T07:50:32Z</time>
      </trkpt>
      <trkpt lat="45.7069" lon="-1.20547">
        <ele>5</ele>
        <time>2011-10-08T07:51:04Z</time>
      </trkpt>
      <trkpt lat="45.7069" lon="-1.20547">
        <ele>5</ele>
        <time>2011-10-08T07:51:54Z</time>
      </trkpt>
      <trkpt lat="45.70689" lon="-1.20545">
        <ele>5</ele>
        <time>2011-10-08T07:52:20Z</time>
      </trkpt>
      <trkpt lat="45.70694" lon="-1.20536">
        <ele>5</ele>
        <time>2011-10-08T07:52:43Z</time>
      </trkpt>
      <trkpt lat="45.707" lon="-1.20524">
        <ele>4</ele>
        <time>2011-10-08T07:52:54Z</time>
      </trkpt>
      <trkpt lat="45.70701" lon="-1.2052">
        <ele>3</ele>
        <time>2011-10-08T07:52:57Z</time>
      </trkpt>
      <trkpt lat="45.70706" lon="-1.20506">
        <ele>1</ele>
        <time>2011-10-08T07:53:08Z</time>
      </trkpt>
      <trkpt lat="45.70708" lon="-1.20489">
        <ele>-2</ele>
        <time>2011-10-08T07:53:20Z</time>
      </trkpt>
      <trkpt lat="45.70708" lon="-1.20484">
        <ele>-4</ele>
        <time>2011-10-08T07:53:24Z</time>
      </trkpt>
      <trkpt lat="45.70708" lon="-1.20477">
        <ele>-5</ele>
        <time>2011-10-08T07:53:28Z</time>
      </trkpt>
      <trkpt lat="45.70709" lon="-1.20464">
        <ele>-5</ele>
        <time>2011-10-08T07:53:36Z</time>
      </trkpt>
      <trkpt lat="45.70711" lon="-1.20452">
        <ele>-7</ele>
        <time>2011-10-08T07:53:44Z</time>
      </trkpt>
      <trkpt lat="45.70712" lon="-1.20441">
        <ele>-7</ele>
        <time>2011-10-08T07:53:50Z</time>
      </trkpt>
      <trkpt lat="45.70713" lon="-1.20425">
        <ele>-7</ele>
        <time>2011-10-08T07:54:00Z</time>
      </trkpt>
      <trkpt lat="45.70715" lon="-1.20411">
        <ele>-8</ele>
        <time>2011-10-08T07:54:10Z</time>
      </trkpt>
      <trkpt lat="45.70716" lon="-1.20403">
        <ele>-8</ele>
        <time>2011-10-08T07:54:14Z</time>
      </trkpt>
      <trkpt lat="45.70717" lon="-1.20377">
        <ele>-7</ele>
        <time>2011-10-08T07:54:28Z</time>
      </trkpt>
      <trkpt lat="45.70717" lon="-1.20374">
        <ele>-7</ele>
        <time>2011-10-08T07:54:30Z</time>
      </trkpt>
      <trkpt lat="45.70721" lon="-1.20357">
        <ele>-8</ele>
        <time>2011-10-08T07:54:40Z</time>
      </trkpt>
      <trkpt lat="45.7072" lon="-1.20351">
        <ele>-9</ele>
        <time>2011-10-08T07:54:44Z</time>
      </trkpt>
      <trkpt lat="45.70719" lon="-1.20337">
        <ele>-9</ele>
        <time>2011-10-08T07:54:53Z</time>
      </trkpt>
      <trkpt lat="45.7072" lon="-1.20327">
        <ele>-10</ele>
        <time>2011-10-08T07:55:00Z</time>
      </trkpt>
      <trkpt lat="45.70723" lon="-1.20308">
        <ele>-10</ele>
        <time>2011-10-08T07:55:11Z</time>
      </trkpt>
      <trkpt lat="45.70723" lon="-1.20304">
        <ele>-10</ele>
        <time>2011-10-08T07:55:13Z</time>
      </trkpt>
      <trkpt lat="45.70724" lon="-1.20301">
        <ele>-10</ele>
        <time>2011-10-08T07:55:15Z</time>
      </trkpt>
      <trkpt lat="45.70725" lon="-1.20292">
        <ele>-9</ele>
        <time>2011-10-08T07:55:20Z</time>
      </trkpt>
      <trkpt lat="45.70726" lon="-1.20286">
        <ele>-9</ele>
        <time>2011-10-08T07:55:23Z</time>
      </trkpt>
      <trkpt lat="45.70727" lon="-1.20266">
        <ele>-7</ele>
        <time>2011-10-08T07:55:35Z</time>
      </trkpt>
      <trkpt lat="45.70727" lon="-1.20248">
        <ele>-5</ele>
        <time>2011-10-08T07:55:46Z</time>
      </trkpt>
      <trkpt lat="45.70727" lon="-1.20243">
        <ele>-6</ele>
        <time>2011-10-08T07:55:49Z</time>
      </trkpt>
      <trkpt lat="45.70731" lon="-1.20224">
        <ele>-7</ele>
        <time>2011-10-08T07:56:01Z</time>
      </trkpt>
      <trkpt lat="45.70733" lon="-1.20209">
        <ele>-9</ele>
        <time>2011-10-08T07:56:12Z</time>
      </trkpt>
      <trkpt lat="45.70736" lon="-1.20195">
        <ele>-9</ele>
        <time>2011-10-08T07:56:22Z</time>
      </trkpt>
      <trkpt lat="45.70739" lon="-1.20187">
        <ele>-9</ele>
        <time>2011-10-08T07:56:27Z</time>
      </trkpt>
      <trkpt lat="45.70742" lon="-1.20177">
        <ele>-9</ele>
        <time>2011-10-08T07:56:32Z</time>
      </trkpt>
      <trkpt lat="45.7075" lon="-1.20157">
        <ele>-9</ele>
        <time>2011-10-08T07:56:45Z</time>
      </trkpt>
      <trkpt lat="45.70752" lon="-1.20143">
        <ele>-9</ele>
        <time>2011-10-08T07:56:56Z</time>
      </trkpt>
      <trkpt lat="45.70753" lon="-1.20138">
        <ele>-10</ele>
        <time>2011-10-08T07:56:59Z</time>
      </trkpt>
      <trkpt lat="45.70753" lon="-1.20119">
        <ele>-12</ele>
        <time>2011-10-08T07:57:11Z</time>
      </trkpt>
      <trkpt lat="45.70752" lon="-1.20102">
        <ele>-14</ele>
        <time>2011-10-08T07:57:22Z</time>
      </trkpt>
      <trkpt lat="45.70749" lon="-1.2009">
        <ele>-13</ele>
        <time>2011-10-08T07:57:30Z</time>
      </trkpt>
      <trkpt lat="45.70749" lon="-1.20083">
        <ele>-14</ele>
        <time>2011-10-08T07:57:34Z</time>
      </trkpt>
      <trkpt lat="45.70748" lon="-1.20064">
        <ele>-13</ele>
        <time>2011-10-08T07:57:48Z</time>
      </trkpt>
      <trkpt lat="45.7075" lon="-1.20053">
        <ele>-12</ele>
        <time>2011-10-08T07:58:03Z</time>
      </trkpt>
      <trkpt lat="45.70749" lon="-1.2005">
        <ele>-12</ele>
        <time>2011-10-08T07:58:15Z</time>
      </trkpt>
      <trkpt lat="45.70747" lon="-1.2003">
        <ele>-9</ele>
        <time>2011-10-08T07:58:32Z</time>
      </trkpt>
      <trkpt lat="45.70746" lon="-1.20017">
        <ele>-8</ele>
        <time>2011-10-08T07:58:42Z</time>
      </trkpt>
      <trkpt lat="45.70744" lon="-1.20009">
        <ele>-7</ele>
        <time>2011-10-08T07:58:46Z</time>
      </trkpt>
      <trkpt lat="45.70743" lon="-1.2">
        <ele>-6</ele>
        <time>2011-10-08T07:58:51Z</time>
      </trkpt>
      <trkpt lat="45.7074" lon="-1.19991">
        <ele>-6</ele>
        <time>2011-10-08T07:58:57Z</time>
      </trkpt>
      <trkpt lat="45.70738" lon="-1.19988">
        <ele>-5</ele>
        <time>2011-10-08T07:58:59Z</time>
      </trkpt>
      <trkpt lat="45.70732" lon="-1.19966">
        <ele>-3</ele>
        <time>2011-10-08T07:59:12Z</time>
      </trkpt>
      <trkpt lat="45.70727" lon="-1.19948">
        <ele>-4</ele>
        <time>2011-10-08T07:59:24Z</time>
      </trkpt>
      <trkpt lat="45.70726" lon="-1.19943">
        <ele>-4</ele>
        <time>2011-10-08T07:59:33Z</time>
      </trkpt>
      <trkpt lat="45.70721" lon="-1.1992">
        <ele>-4</ele>
        <time>2011-10-08T07:59:46Z</time>
      </trkpt>
      <trkpt lat="45.70721" lon="-1.19906">
        <ele>-7</ele>
        <time>2011-10-08T07:59:54Z</time>
      </trkpt>
      <trkpt lat="45.70719" lon="-1.19886">
        <ele>-9</ele>
        <time>2011-10-08T08:00:07Z</time>
      </trkpt>
      <trkpt lat="45.7072" lon="-1.19875">
        <ele>-9</ele>
        <time>2011-10-08T08:00:15Z</time>
      </trkpt>
      <trkpt lat="45.70719" lon="-1.19872">
        <ele>-10</ele>
        <time>2011-10-08T08:00:17Z</time>
      </trkpt>
      <trkpt lat="45.7072" lon="-1.19851">
        <ele>-11</ele>
        <time>2011-10-08T08:00:31Z</time>
      </trkpt>
      <trkpt lat="45.70721" lon="-1.1985">
        <ele>-11</ele>
        <time>2011-10-08T08:00:32Z</time>
      </trkpt>
      <trkpt lat="45.70721" lon="-1.19825">
        <ele>-11</ele>
        <time>2011-10-08T08:00:46Z</time>
      </trkpt>
      <trkpt lat="45.70722" lon="-1.19823">
        <ele>-10</ele>
        <time>2011-10-08T08:00:47Z</time>
      </trkpt>
      <trkpt lat="45.70723" lon="-1.19814">
        <ele>-10</ele>
        <time>2011-10-08T08:00:52Z</time>
      </trkpt>
      <trkpt lat="45.70722" lon="-1.19806">
        <ele>-10</ele>
        <time>2011-10-08T08:00:56Z</time>
      </trkpt>
      <trkpt lat="45.70722" lon="-1.19782">
        <ele>-7</ele>
        <time>2011-10-08T08:01:08Z</time>
      </trkpt>
      <trkpt lat="45.70722" lon="-1.19777">
        <ele>-6</ele>
        <time>2011-10-08T08:01:11Z</time>
      </trkpt>
      <trkpt lat="45.70722" lon="-1.19774">
        <ele>-6</ele>
        <time>2011-10-08T08:01:13Z</time>
      </trkpt>
      <trkpt lat="45.70723" lon="-1.19752">
        <ele>-8</ele>
        <time>2011-10-08T08:01:27Z</time>
      </trkpt>
      <trkpt lat="45.70726" lon="-1.1974">
        <ele>-10</ele>
        <time>2011-10-08T08:01:35Z</time>
      </trkpt>
      <trkpt lat="45.70732" lon="-1.19728">
        <ele>-14</ele>
        <time>2011-10-08T08:01:46Z</time>
      </trkpt>
      <trkpt lat="45.70736" lon="-1.19717">
        <ele>-16</ele>
        <time>2011-10-08T08:01:54Z</time>
      </trkpt>
      <trkpt lat="45.7074" lon="-1.19701">
        <ele>-17</ele>
        <time>2011-10-08T08:02:06Z</time>
      </trkpt>
      <trkpt lat="45.70744" lon="-1.19688">
        <ele>-19</ele>
        <time>2011-10-08T08:02:16Z</time>
      </trkpt>
      <trkpt lat="45.7075" lon="-1.19671">
        <ele>-19</ele>
        <time>2011-10-08T08:02:27Z</time>
      </trkpt>
      <trkpt lat="45.70752" lon="-1.19663">
        <ele>-19</ele>
        <time>2011-10-08T08:02:32Z</time>
      </trkpt>
      <trkpt lat="45.70754" lon="-1.1966">
        <ele>-18</ele>
        <time>2011-10-08T08:02:34Z</time>
      </trkpt>
      <trkpt lat="45.70759" lon="-1.19646">
        <ele>-17</ele>
        <time>2011-10-08T08:02:45Z</time>
      </trkpt>
      <trkpt lat="45.70765" lon="-1.19625">
        <ele>-16</ele>
        <time>2011-10-08T08:03:01Z</time>
      </trkpt>
      <trkpt lat="45.70773" lon="-1.196">
        <ele>-16</ele>
        <time>2011-10-08T08:03:15Z</time>
      </trkpt>
      <trkpt lat="45.70779" lon="-1.19579">
        <ele>-15</ele>
        <time>2011-10-08T08:03:27Z</time>
      </trkpt>
      <trkpt lat="45.70782" lon="-1.1957">
        <ele>-14</ele>
        <time>2011-10-08T08:03:33Z</time>
      </trkpt>
      <trkpt lat="45.70783" lon="-1.19564">
        <ele>-13</ele>
        <time>2011-10-08T08:03:36Z</time>
      </trkpt>
      <trkpt lat="45.70788" lon="-1.19546">
        <ele>-12</ele>
        <time>2011-10-08T08:03:48Z</time>
      </trkpt>
      <trkpt lat="45.7079" lon="-1.19526">
        <ele>-7</ele>
        <time>2011-10-08T08:04:01Z</time>
      </trkpt>
      <trkpt lat="45.70799" lon="-1.195">
        <ele>-3</ele>
        <time>2011-10-08T08:04:16Z</time>
      </trkpt>
      <trkpt lat="45.70804" lon="-1.19487">
        <ele>-3</ele>
        <time>2011-10-08T08:04:25Z</time>
      </trkpt>
      <trkpt lat="45.70808" lon="-1.19479">
        <ele>-3</ele>
        <time>2011-10-08T08:04:31Z</time>
      </trkpt>
      <trkpt lat="45.70811" lon="-1.19473">
        <ele>-2</ele>
        <time>2011-10-08T08:04:35Z</time>
      </trkpt>
      <trkpt lat="45.70815" lon="-1.19464">
        <ele>-1</ele>
        <time>2011-10-08T08:04:41Z</time>
      </trkpt>
      <trkpt lat="45.7082" lon="-1.19454">
        <ele>1</ele>
        <time>2011-10-08T08:04:55Z</time>
      </trkpt>
      <trkpt lat="45.70826" lon="-1.1944">
        <ele>1</ele>
        <time>2011-10-08T08:05:07Z</time>
      </trkpt>
      <trkpt lat="45.70827" lon="-1.19439">
        <ele>1</ele>
        <time>2011-10-08T08:05:12Z</time>
      </trkpt>
      <trkpt lat="45.70829" lon="-1.19432">
        <ele>1</ele>
        <time>2011-10-08T08:05:17Z</time>
      </trkpt>
      <trkpt lat="45.70836" lon="-1.19419">
        <ele>1</ele>
        <time>2011-10-08T08:05:28Z</time>
      </trkpt>
      <trkpt lat="45.70845" lon="-1.19411">
        <ele>1</ele>
        <time>2011-10-08T08:05:37Z</time>
      </trkpt>
      <trkpt lat="45.70851" lon="-1.19396">
        <ele>2</ele>
        <time>2011-10-08T08:05:51Z</time>
      </trkpt>
      <trkpt lat="45.70852" lon="-1.19393">
        <ele>2</ele>
        <time>2011-10-08T08:05:53Z</time>
      </trkpt>
      <trkpt lat="45.70853" lon="-1.19391">
        <ele>2</ele>
        <time>2011-10-08T08:05:55Z</time>
      </trkpt>
      <trkpt lat="45.70858" lon="-1.19378">
        <ele>1</ele>
        <time>2011-10-08T08:06:06Z</time>
      </trkpt>
      <trkpt lat="45.70861" lon="-1.19369">
        <ele>-2</ele>
        <time>2011-10-08T08:06:15Z</time>
      </trkpt>
      <trkpt lat="45.70865" lon="-1.19357">
        <ele>-4</ele>
        <time>2011-10-08T08:06:23Z</time>
      </trkpt>
      <trkpt lat="45.70867" lon="-1.19349">
        <ele>-5</ele>
        <time>2011-10-08T08:06:28Z</time>
      </trkpt>
      <trkpt lat="45.70868" lon="-1.19344">
        <ele>-5</ele>
        <time>2011-10-08T08:06:31Z</time>
      </trkpt>
      <trkpt lat="45.70871" lon="-1.19337">
        <ele>-6</ele>
        <time>2011-10-08T08:06:36Z</time>
      </trkpt>
      <trkpt lat="45.70871" lon="-1.1932">
        <ele>-9</ele>
        <time>2011-10-08T08:06:47Z</time>
      </trkpt>
      <trkpt lat="45.70871" lon="-1.19311">
        <ele>-10</ele>
        <time>2011-10-08T08:06:52Z</time>
      </trkpt>
      <trkpt lat="45.7087" lon="-1.19289">
        <ele>-15</ele>
        <time>2011-10-08T08:07:07Z</time>
      </trkpt>
      <trkpt lat="45.7087" lon="-1.19277">
        <ele>-20</ele>
        <time>2011-10-08T08:07:17Z</time>
      </trkpt>
      <trkpt lat="45.70869" lon="-1.19258">
        <ele>-24</ele>
        <time>2011-10-08T08:07:29Z</time>
      </trkpt>
      <trkpt lat="45.70868" lon="-1.19252">
        <ele>-23</ele>
        <time>2011-10-08T08:07:32Z</time>
      </trkpt>
      <trkpt lat="45.70868" lon="-1.1924">
        <ele>-23</ele>
        <time>2011-10-08T08:07:39Z</time>
      </trkpt>
      <trkpt lat="45.70868" lon="-1.19234">
        <ele>-23</ele>
        <time>2011-10-08T08:07:43Z</time>
      </trkpt>
      <trkpt lat="45.70867" lon="-1.1922">
        <ele>-24</ele>
        <time>2011-10-08T08:07:53Z</time>
      </trkpt>
      <trkpt lat="45.70868" lon="-1.19204">
        <ele>-29</ele>
        <time>2011-10-08T08:08:05Z</time>
      </trkpt>
      <trkpt lat="45.70869" lon="-1.19192">
        <ele>-32</ele>
        <time>2011-10-08T08:08:15Z</time>
      </trkpt>
      <trkpt lat="45.7087" lon="-1.19185">
        <ele>-30</ele>
        <time>2011-10-08T08:08:37Z</time>
      </trkpt>
      <trkpt lat="45.70871" lon="-1.19181">
        <ele>-29</ele>
        <time>2011-10-08T08:08:40Z</time>
      </trkpt>
      <trkpt lat="45.7087" lon="-1.19165">
        <ele>-29</ele>
        <time>2011-10-08T08:08:51Z</time>
      </trkpt>
      <trkpt lat="45.70869" lon="-1.19151">
        <ele>-30</ele>
        <time>2011-10-08T08:09:02Z</time>
      </trkpt>
      <trkpt lat="45.7087" lon="-1.19136">
        <ele>-30</ele>
        <time>2011-10-08T08:09:11Z</time>
      </trkpt>
      <trkpt lat="45.70871" lon="-1.19118">
        <ele>-29</ele>
        <time>2011-10-08T08:09:23Z</time>
      </trkpt>
      <trkpt lat="45.70874" lon="-1.19104">
        <ele>-33</ele>
        <time>2011-10-08T08:09:33Z</time>
      </trkpt>
      <trkpt lat="45.70876" lon="-1.19093">
        <ele>-34</ele>
        <time>2011-10-08T08:09:51Z</time>
      </trkpt>
      <trkpt lat="45.70875" lon="-1.19088">
        <ele>-35</ele>
        <time>2011-10-08T08:10:00Z</time>
      </trkpt>
      <trkpt lat="45.70875" lon="-1.19071">
        <ele>-37</ele>
        <time>2011-10-08T08:10:12Z</time>
      </trkpt>
      <trkpt lat="45.70875" lon="-1.19066">
        <ele>-38</ele>
        <time>2011-10-08T08:10:16Z</time>
      </trkpt>
      <trkpt lat="45.70875" lon="-1.19051">
        <ele>-38</ele>
        <time>2011-10-08T08:10:27Z</time>
      </trkpt>
      <trkpt lat="45.70872" lon="-1.19028">
        <ele>-40</ele>
        <time>2011-10-08T08:10:41Z</time>
      </trkpt>
      <trkpt lat="45.70872" lon="-1.19027">
        <ele>-40</ele>
        <time>2011-10-08T08:10:42Z</time>
      </trkpt>
      <trkpt lat="45.70873" lon="-1.19012">
        <ele>-39</ele>
        <time>2011-10-08T08:10:51Z</time>
      </trkpt>
      <trkpt lat="45.70875" lon="-1.19">
        <ele>-38</ele>
        <time>2011-10-08T08:10:58Z</time>
      </trkpt>
      <trkpt lat="45.70874" lon="-1.18979">
        <ele>-35</ele>
        <time>2011-10-08T08:11:11Z</time>
      </trkpt>
      <trkpt lat="45.70872" lon="-1.18959">
        <ele>-30</ele>
        <time>2011-10-08T08:11:23Z</time>
      </trkpt>
      <trkpt lat="45.7087" lon="-1.18938">
        <ele>-24</ele>
        <time>2011-10-08T08:11:35Z</time>
      </trkpt>
      <trkpt lat="45.70868" lon="-1.18927">
        <ele>-23</ele>
        <time>2011-10-08T08:11:41Z</time>
      </trkpt>
      <trkpt lat="45.70868" lon="-1.18903">
        <ele>-20</ele>
        <time>2011-10-08T08:11:54Z</time>
      </trkpt>
      <trkpt lat="45.70866" lon="-1.18893">
        <ele>-19</ele>
        <time>2011-10-08T08:12:12Z</time>
      </trkpt>
      <trkpt lat="45.70866" lon="-1.18891">
        <ele>-19</ele>
        <time>2011-10-08T08:12:14Z</time>
      </trkpt>
      <trkpt lat="45.70864" lon="-1.18869">
        <ele>-14</ele>
        <time>2011-10-08T08:12:28Z</time>
      </trkpt>
      <trkpt lat="45.70863" lon="-1.18853">
        <ele>-12</ele>
        <time>2011-10-08T08:12:39Z</time>
      </trkpt>
      <trkpt lat="45.70863" lon="-1.1884">
        <ele>-14</ele>
        <time>2011-10-08T08:12:49Z</time>
      </trkpt>
      <trkpt lat="45.70866" lon="-1.18822">
        <ele>-15</ele>
        <time>2011-10-08T08:13:00Z</time>
      </trkpt>
      <trkpt lat="45.70865" lon="-1.18812">
        <ele>-15</ele>
        <time>2011-10-08T08:13:10Z</time>
      </trkpt>
      <trkpt lat="45.70868" lon="-1.18797">
        <ele>-16</ele>
        <time>2011-10-08T08:13:22Z</time>
      </trkpt>
      <trkpt lat="45.70869" lon="-1.18787">
        <ele>-16</ele>
        <time>2011-10-08T08:13:33Z</time>
      </trkpt>
      <trkpt lat="45.70872" lon="-1.18776">
        <ele>-17</ele>
        <time>2011-10-08T08:13:43Z</time>
      </trkpt>
      <trkpt lat="45.70876" lon="-1.18765">
        <ele>-18</ele>
        <time>2011-10-08T08:13:52Z</time>
      </trkpt>
      <trkpt lat="45.70876" lon="-1.1876">
        <ele>-18</ele>
        <time>2011-10-08T08:13:55Z</time>
      </trkpt>
      <trkpt lat="45.70881" lon="-1.18738">
        <ele>-18</ele>
        <time>2011-10-08T08:14:08Z</time>
      </trkpt>
      <trkpt lat="45.70882" lon="-1.18735">
        <ele>-18</ele>
        <time>2011-10-08T08:14:10Z</time>
      </trkpt>
      <trkpt lat="45.70884" lon="-1.18726">
        <ele>-18</ele>
        <time>2011-10-08T08:14:15Z</time>
      </trkpt>
      <trkpt lat="45.70888" lon="-1.18706">
        <ele>-18</ele>
        <time>2011-10-08T08:14:27Z</time>
      </trkpt>
      <trkpt lat="45.70894" lon="-1.18695">
        <ele>-20</ele>
        <time>2011-10-08T08:14:36Z</time>
      </trkpt>
      <trkpt lat="45.70899" lon="-1.18677">
        <ele>-21</ele>
        <time>2011-10-08T08:14:47Z</time>
      </trkpt>
      <trkpt lat="45.709" lon="-1.18672">
        <ele>-21</ele>
        <time>2011-10-08T08:14:52Z</time>
      </trkpt>
      <trkpt lat="45.70902" lon="-1.18658">
        <ele>-26</ele>
        <time>2011-10-08T08:15:03Z</time>
      </trkpt>
      <trkpt lat="45.70905" lon="-1.18646">
        <ele>-34</ele>
        <time>2011-10-08T08:15:14Z</time>
      </trkpt>
      <trkpt lat="45.70908" lon="-1.18638">
        <ele>-38</ele>
        <time>2011-10-08T08:15:21Z</time>
      </trkpt>
      <trkpt lat="45.70908" lon="-1.18633">
        <ele>-39</ele>
        <time>2011-10-08T08:15:24Z</time>
      </trkpt>
      <trkpt lat="45.70909" lon="-1.18614">
        <ele>-44</ele>
        <time>2011-10-08T08:15:36Z</time>
      </trkpt>
      <trkpt lat="45.70909" lon="-1.18612">
        <ele>-44</ele>
        <time>2011-10-08T08:15:37Z</time>
      </trkpt>
      <trkpt lat="45.709" lon="-1.18585">
        <ele>-42</ele>
        <time>2011-10-08T08:15:51Z</time>
      </trkpt>
      <trkpt lat="45.70891" lon="-1.18577">
        <ele>-43</ele>
        <time>2011-10-08T08:16:00Z</time>
      </trkpt>
      <trkpt lat="45.70881" lon="-1.18567">
        <ele>-43</ele>
        <time>2011-10-08T08:16:10Z</time>
      </trkpt>
      <trkpt lat="45.7088" lon="-1.18557">
        <ele>-42</ele>
        <time>2011-10-08T08:16:17Z</time>
      </trkpt>
      <trkpt lat="45.70888" lon="-1.18542">
        <ele>-35</ele>
        <time>2011-10-08T08:16:30Z</time>
      </trkpt>
      <trkpt lat="45.70894" lon="-1.18529">
        <ele>-31</ele>
        <time>2011-10-08T08:16:40Z</time>
      </trkpt>
      <trkpt lat="45.70907" lon="-1.18505">
        <ele>-23</ele>
        <time>2011-10-08T08:16:55Z</time>
      </trkpt>
      <trkpt lat="45.70907" lon="-1.185">
        <ele>-21</ele>
        <time>2011-10-08T08:16:58Z</time>
      </trkpt>
      <trkpt lat="45.70913" lon="-1.1848">
        <ele>-21</ele>
        <time>2011-10-08T08:17:11Z</time>
      </trkpt>
      <trkpt lat="45.70918" lon="-1.1846">
        <ele>-21</ele>
        <time>2011-10-08T08:17:23Z</time>
      </trkpt>
      <trkpt lat="45.70923" lon="-1.18443">
        <ele>-22</ele>
        <time>2011-10-08T08:17:33Z</time>
      </trkpt>
      <trkpt lat="45.70926" lon="-1.18437">
        <ele>-22</ele>
        <time>2011-10-08T08:17:38Z</time>
      </trkpt>
      <trkpt lat="45.70929" lon="-1.18417">
        <ele>-26</ele>
        <time>2011-10-08T08:17:55Z</time>
      </trkpt>
      <trkpt lat="45.7093" lon="-1.18417">
        <ele>-27</ele>
        <time>2011-10-08T08:17:56Z</time>
      </trkpt>
      <trkpt lat="45.70933" lon="-1.18413">
        <ele>-27</ele>
        <time>2011-10-08T08:18:01Z</time>
      </trkpt>
      <trkpt lat="45.70938" lon="-1.18398">
        <ele>-30</ele>
        <time>2011-10-08T08:18:11Z</time>
      </trkpt>
      <trkpt lat="45.70939" lon="-1.18391">
        <ele>-30</ele>
        <time>2011-10-08T08:18:15Z</time>
      </trkpt>
      <trkpt lat="45.70942" lon="-1.18379">
        <ele>-34</ele>
        <time>2011-10-08T08:18:23Z</time>
      </trkpt>
      <trkpt lat="45.70949" lon="-1.18363">
        <ele>-41</ele>
        <time>2011-10-08T08:18:37Z</time>
      </trkpt>
      <trkpt lat="45.70955" lon="-1.18343">
        <ele>-43</ele>
        <time>2011-10-08T08:18:48Z</time>
      </trkpt>
      <trkpt lat="45.70962" lon="-1.18318">
        <ele>-38</ele>
        <time>2011-10-08T08:19:09Z</time>
      </trkpt>
      <trkpt lat="45.70965" lon="-1.18303">
        <ele>-38</ele>
        <time>2011-10-08T08:19:20Z</time>
      </trkpt>
      <trkpt lat="45.70971" lon="-1.18283">
        <ele>-34</ele>
        <time>2011-10-08T08:19:29Z</time>
      </trkpt>
      <trkpt lat="45.70973" lon="-1.18276">
        <ele>-35</ele>
        <time>2011-10-08T08:19:33Z</time>
      </trkpt>
      <trkpt lat="45.70979" lon="-1.1826">
        <ele>-36</ele>
        <time>2011-10-08T08:19:42Z</time>
      </trkpt>
      <trkpt lat="45.70983" lon="-1.18243">
        <ele>-37</ele>
        <time>2011-10-08T08:19:55Z</time>
      </trkpt>
      <trkpt lat="45.70984" lon="-1.1824">
        <ele>-37</ele>
        <time>2011-10-08T08:19:57Z</time>
      </trkpt>
      <trkpt lat="45.70985" lon="-1.18236">
        <ele>-37</ele>
        <time>2011-10-08T08:19:59Z</time>
      </trkpt>
      <trkpt lat="45.70989" lon="-1.18227">
        <ele>-40</ele>
        <time>2011-10-08T08:20:05Z</time>
      </trkpt>
      <trkpt lat="45.70994" lon="-1.18212">
        <ele>-41</ele>
        <time>2011-10-08T08:20:14Z</time>
      </trkpt>
      <trkpt lat="45.70998" lon="-1.18192">
        <ele>-43</ele>
        <time>2011-10-08T08:20:26Z</time>
      </trkpt>
      <trkpt lat="45.71001" lon="-1.18186">
        <ele>-46</ele>
        <time>2011-10-08T08:20:32Z</time>
      </trkpt>
      <trkpt lat="45.71009" lon="-1.18164">
        <ele>-46</ele>
        <time>2011-10-08T08:20:44Z</time>
      </trkpt>
      <trkpt lat="45.71015" lon="-1.18132">
        <ele>-42</ele>
        <time>2011-10-08T08:20:58Z</time>
      </trkpt>
      <trkpt lat="45.71017" lon="-1.18112">
        <ele>-36</ele>
        <time>2011-10-08T08:21:09Z</time>
      </trkpt>
      <trkpt lat="45.71021" lon="-1.18092">
        <ele>-32</ele>
        <time>2011-10-08T08:21:21Z</time>
      </trkpt>
      <trkpt lat="45.71026" lon="-1.18073">
        <ele>-29</ele>
        <time>2011-10-08T08:21:32Z</time>
      </trkpt>
      <trkpt lat="45.71027" lon="-1.18071">
        <ele>-28</ele>
        <time>2011-10-08T08:21:33Z</time>
      </trkpt>
      <trkpt lat="45.71029" lon="-1.18051">
        <ele>-30</ele>
        <time>2011-10-08T08:21:45Z</time>
      </trkpt>
      <trkpt lat="45.71035" lon="-1.18038">
        <ele>-34</ele>
        <time>2011-10-08T08:21:56Z</time>
      </trkpt>
      <trkpt lat="45.71046" lon="-1.18018">
        <ele>-31</ele>
        <time>2011-10-08T08:22:06Z</time>
      </trkpt>
      <trkpt lat="45.71048" lon="-1.18013">
        <ele>-31</ele>
        <time>2011-10-08T08:22:08Z</time>
      </trkpt>
      <trkpt lat="45.71049" lon="-1.18003">
        <ele>-31</ele>
        <time>2011-10-08T08:22:12Z</time>
      </trkpt>
      <trkpt lat="45.71055" lon="-1.17981">
        <ele>-35</ele>
        <time>2011-10-08T08:22:25Z</time>
      </trkpt>
      <trkpt lat="45.71056" lon="-1.17973">
        <ele>-34</ele>
        <time>2011-10-08T08:22:30Z</time>
      </trkpt>
      <trkpt lat="45.71058" lon="-1.17969">
        <ele>-34</ele>
        <time>2011-10-08T08:22:32Z</time>
      </trkpt>
      <trkpt lat="45.71061" lon="-1.17961">
        <ele>-35</ele>
        <time>2011-10-08T08:22:37Z</time>
      </trkpt>
      <trkpt lat="45.71062" lon="-1.17954">
        <ele>-36</ele>
        <time>2011-10-08T08:22:41Z</time>
      </trkpt>
      <trkpt lat="45.71067" lon="-1.17944">
        <ele>-39</ele>
        <time>2011-10-08T08:22:48Z</time>
      </trkpt>
      <trkpt lat="45.71068" lon="-1.17942">
        <ele>-40</ele>
        <time>2011-10-08T08:22:50Z</time>
      </trkpt>
      <trkpt lat="45.71074" lon="-1.17923">
        <ele>-48</ele>
        <time>2011-10-08T08:23:04Z</time>
      </trkpt>
      <trkpt lat="45.7108" lon="-1.17902">
        <ele>-53</ele>
        <time>2011-10-08T08:23:16Z</time>
      </trkpt>
      <trkpt lat="45.71084" lon="-1.17876">
        <ele>-53</ele>
        <time>2011-10-08T08:23:30Z</time>
      </trkpt>
      <trkpt lat="45.71088" lon="-1.17852">
        <ele>-50</ele>
        <time>2011-10-08T08:23:42Z</time>
      </trkpt>
      <trkpt lat="45.71089" lon="-1.17846">
        <ele>-48</ele>
        <time>2011-10-08T08:23:44Z</time>
      </trkpt>
      <trkpt lat="45.71088" lon="-1.17823">
        <ele>-46</ele>
        <time>2011-10-08T08:23:54Z</time>
      </trkpt>
      <trkpt lat="45.71089" lon="-1.17801">
        <ele>-44</ele>
        <time>2011-10-08T08:24:07Z</time>
      </trkpt>
      <trkpt lat="45.71092" lon="-1.17782">
        <ele>-47</ele>
        <time>2011-10-08T08:24:19Z</time>
      </trkpt>
      <trkpt lat="45.71095" lon="-1.17768">
        <ele>-50</ele>
        <time>2011-10-08T08:24:28Z</time>
      </trkpt>
      <trkpt lat="45.71095" lon="-1.17759">
        <ele>-51</ele>
        <time>2011-10-08T08:24:32Z</time>
      </trkpt>
      <trkpt lat="45.71096" lon="-1.17745">
        <ele>-53</ele>
        <time>2011-10-08T08:24:39Z</time>
      </trkpt>
      <trkpt lat="45.711" lon="-1.17735">
        <ele>-53</ele>
        <time>2011-10-08T08:24:44Z</time>
      </trkpt>
      <trkpt lat="45.71101" lon="-1.17732">
        <ele>-53</ele>
        <time>2011-10-08T08:24:46Z</time>
      </trkpt>
      <trkpt lat="45.71103" lon="-1.17709">
        <ele>-50</ele>
        <time>2011-10-08T08:24:59Z</time>
      </trkpt>
      <trkpt lat="45.71104" lon="-1.17686">
        <ele>-46</ele>
        <time>2011-10-08T08:25:09Z</time>
      </trkpt>
      <trkpt lat="45.71104" lon="-1.17671">
        <ele>-44</ele>
        <time>2011-10-08T08:25:17Z</time>
      </trkpt>
      <trkpt lat="45.71106" lon="-1.17652">
        <ele>-41</ele>
        <time>2011-10-08T08:25:27Z</time>
      </trkpt>
      <trkpt lat="45.71106" lon="-1.17635">
        <ele>-39</ele>
        <time>2011-10-08T08:25:36Z</time>
      </trkpt>
      <trkpt lat="45.71105" lon="-1.17607">
        <ele>-36</ele>
        <time>2011-10-08T08:25:48Z</time>
      </trkpt>
      <trkpt lat="45.71106" lon="-1.17592">
        <ele>-35</ele>
        <time>2011-10-08T08:25:55Z</time>
      </trkpt>
      <trkpt lat="45.71109" lon="-1.17584">
        <ele>-35</ele>
        <time>2011-10-08T08:26:00Z</time>
      </trkpt>
      <trkpt lat="45.71109" lon="-1.17572">
        <ele>-35</ele>
        <time>2011-10-08T08:26:06Z</time>
      </trkpt>
      <trkpt lat="45.7111" lon="-1.17555">
        <ele>-39</ele>
        <time>2011-10-08T08:26:17Z</time>
      </trkpt>
      <trkpt lat="45.71117" lon="-1.17535">
        <ele>-41</ele>
        <time>2011-10-08T08:26:31Z</time>
      </trkpt>
      <trkpt lat="45.71121" lon="-1.17514">
        <ele>-42</ele>
        <time>2011-10-08T08:26:41Z</time>
      </trkpt>
      <trkpt lat="45.71126" lon="-1.17501">
        <ele>-46</ele>
        <time>2011-10-08T08:26:51Z</time>
      </trkpt>
      <trkpt lat="45.71135" lon="-1.17491">
        <ele>-41</ele>
        <time>2011-10-08T08:27:10Z</time>
      </trkpt>
      <trkpt lat="45.71136" lon="-1.17491">
        <ele>-40</ele>
        <time>2011-10-08T08:27:12Z</time>
      </trkpt>
      <trkpt lat="45.71141" lon="-1.17489">
        <ele>-37</ele>
        <time>2011-10-08T08:27:21Z</time>
      </trkpt>
      <trkpt lat="45.71148" lon="-1.1748">
        <ele>-24</ele>
        <time>2011-10-08T08:27:30Z</time>
      </trkpt>
      <trkpt lat="45.71154" lon="-1.17475">
        <ele>-21</ele>
        <time>2011-10-08T08:27:39Z</time>
      </trkpt>
      <trkpt lat="45.71163" lon="-1.17473">
        <ele>-17</ele>
        <time>2011-10-08T08:27:51Z</time>
      </trkpt>
      <trkpt lat="45.71175" lon="-1.17473">
        <ele>-10</ele>
        <time>2011-10-08T08:28:04Z</time>
      </trkpt>
      <trkpt lat="45.71186" lon="-1.17472">
        <ele>-4</ele>
        <time>2011-10-08T08:28:16Z</time>
      </trkpt>
      <trkpt lat="45.71188" lon="-1.17471">
        <ele>-3</ele>
        <time>2011-10-08T08:28:19Z</time>
      </trkpt>
      <trkpt lat="45.71201" lon="-1.17471">
        <ele>1</ele>
        <time>2011-10-08T08:28:32Z</time>
      </trkpt>
      <trkpt lat="45.71205" lon="-1.17476">
        <ele>4</ele>
        <time>2011-10-08T08:29:14Z</time>
      </trkpt>
      <trkpt lat="45.71204" lon="-1.17475">
        <ele>5</ele>
        <time>2011-10-08T08:30:03Z</time>
      </trkpt>
      <trkpt lat="45.71204" lon="-1.17474">
        <ele>5</ele>
        <time>2011-10-08T08:30:20Z</time>
      </trkpt>
      <trkpt lat="45.71211" lon="-1.17469">
        <ele>5</ele>
        <time>2011-10-08T08:30:31Z</time>
      </trkpt>
      <trkpt lat="45.71217" lon="-1.1747">
        <ele>5</ele>
        <time>2011-10-08T08:30:44Z</time>
      </trkpt>
      <trkpt lat="45.71225" lon="-1.1747">
        <ele>5</ele>
        <time>2011-10-08T08:30:55Z</time>
      </trkpt>
      <trkpt lat="45.71232" lon="-1.17472">
        <ele>4</ele>
        <time>2011-10-08T08:31:05Z</time>
      </trkpt>
      <trkpt lat="45.71235" lon="-1.17478">
        <ele>4</ele>
        <time>2011-10-08T08:31:21Z</time>
      </trkpt>
      <trkpt lat="45.71235" lon="-1.17482">
        <ele>4</ele>
        <time>2011-10-08T08:31:24Z</time>
      </trkpt>
      <trkpt lat="45.71232" lon="-1.175">
        <ele>1</ele>
        <time>2011-10-08T08:31:37Z</time>
      </trkpt>
      <trkpt lat="45.71229" lon="-1.17507">
        <ele>9.3</ele>
        <time>2011-10-08T08:31:43Z</time>
      </trkpt>
      <trkpt lat="45.71229" lon="-1.1751">
        <ele>1</ele>
        <time>2011-10-08T08:31:45Z</time>
      </trkpt>
      <trkpt lat="45.71228" lon="-1.17519">
        <ele>1</ele>
        <time>2011-10-08T08:31:51Z</time>
      </trkpt>
      <trkpt lat="45.71224" lon="-1.17535">
        <ele>1</ele>
        <time>2011-10-08T08:32:02Z</time>
      </trkpt>
      <trkpt lat="45.71222" lon="-1.17551">
        <ele>2</ele>
        <time>2011-10-08T08:32:13Z</time>
      </trkpt>
      <trkpt lat="45.71218" lon="-1.17559">
        <ele>2</ele>
        <time>2011-10-08T08:32:18Z</time>
      </trkpt>
      <trkpt lat="45.71217" lon="-1.17563">
        <ele>2</ele>
        <time>2011-10-08T08:32:20Z</time>
      </trkpt>
      <trkpt lat="45.71216" lon="-1.17583">
        <ele>3</ele>
        <time>2011-10-08T08:32:32Z</time>
      </trkpt>
      <trkpt lat="45.71216" lon="-1.17588">
        <ele>3</ele>
        <time>2011-10-08T08:32:36Z</time>
      </trkpt>
      <trkpt lat="45.71215" lon="-1.17592">
        <ele>3</ele>
        <time>2011-10-08T08:32:39Z</time>
      </trkpt>
      <trkpt lat="45.71214" lon="-1.17602">
        <ele>5</ele>
        <time>2011-10-08T08:32:45Z</time>
      </trkpt>
      <trkpt lat="45.71214" lon="-1.17607">
        <ele>5</ele>
        <time>2011-10-08T08:32:48Z</time>
      </trkpt>
      <trkpt lat="45.71214" lon="-1.17613">
        <ele>5</ele>
        <time>2011-10-08T08:32:52Z</time>
      </trkpt>
      <trkpt lat="45.71214" lon="-1.17617">
        <ele>5</ele>
        <time>2011-10-08T08:32:54Z</time>
      </trkpt>
      <trkpt lat="45.71215" lon="-1.17624">
        <ele>4</ele>
        <time>2011-10-08T08:33:00Z</time>
      </trkpt>
      <trkpt lat="45.71218" lon="-1.17637">
        <ele>3</ele>
        <time>2011-10-08T08:33:11Z</time>
      </trkpt>
      <trkpt lat="45.71222" lon="-1.17654">
        <ele>1</ele>
        <time>2011-10-08T08:33:23Z</time>
      </trkpt>
      <trkpt lat="45.71224" lon="-1.17668">
        <ele>-2</ele>
        <time>2011-10-08T08:33:33Z</time>
      </trkpt>
      <trkpt lat="45.71227" lon="-1.1768">
        <ele>-6</ele>
        <time>2011-10-08T08:33:43Z</time>
      </trkpt>
      <trkpt lat="45.71229" lon="-1.17681">
        <ele>-7</ele>
        <time>2011-10-08T08:33:45Z</time>
      </trkpt>
      <trkpt lat="45.7123" lon="-1.17692">
        <ele>-10</ele>
        <time>2011-10-08T08:33:54Z</time>
      </trkpt>
      <trkpt lat="45.71231" lon="-1.17702">
        <ele>-12</ele>
        <time>2011-10-08T08:33:59Z</time>
      </trkpt>
      <trkpt lat="45.71233" lon="-1.17724">
        <ele>-11</ele>
        <time>2011-10-08T08:34:11Z</time>
      </trkpt>
      <trkpt lat="45.71236" lon="-1.17737">
        <ele>-11</ele>
        <time>2011-10-08T08:34:19Z</time>
      </trkpt>
      <trkpt lat="45.71237" lon="-1.17749">
        <ele>-11</ele>
        <time>2011-10-08T08:34:26Z</time>
      </trkpt>
      <trkpt lat="45.7124" lon="-1.17768">
        <ele>-10</ele>
        <time>2011-10-08T08:34:38Z</time>
      </trkpt>
      <trkpt lat="45.71242" lon="-1.17778">
        <ele>-9</ele>
        <time>2011-10-08T08:34:45Z</time>
      </trkpt>
      <trkpt lat="45.71251" lon="-1.17805">
        <ele>-6</ele>
        <time>2011-10-08T08:35:01Z</time>
      </trkpt>
      <trkpt lat="45.71252" lon="-1.17813">
        <ele>-7</ele>
        <time>2011-10-08T08:35:06Z</time>
      </trkpt>
      <trkpt lat="45.71258" lon="-1.17827">
        <ele>-5</ele>
        <time>2011-10-08T08:35:15Z</time>
      </trkpt>
      <trkpt lat="45.71263" lon="-1.17831">
        <ele>-3</ele>
        <time>2011-10-08T08:35:21Z</time>
      </trkpt>
      <trkpt lat="45.71267" lon="-1.17838">
        <ele>-1</ele>
        <time>2011-10-08T08:35:26Z</time>
      </trkpt>
      <trkpt lat="45.71277" lon="-1.17847">
        <ele>9</ele>
        <time>2011-10-08T08:35:37Z</time>
      </trkpt>
      <trkpt lat="45.71285" lon="-1.17852">
        <ele>1</ele>
        <time>2011-10-08T08:35:45Z</time>
      </trkpt>
      <trkpt lat="45.71298" lon="-1.17855">
        <ele>1</ele>
        <time>2011-10-08T08:35:56Z</time>
      </trkpt>
      <trkpt lat="45.71311" lon="-1.17855">
        <ele>2</ele>
        <time>2011-10-08T08:36:08Z</time>
      </trkpt>
      <trkpt lat="45.71321" lon="-1.17857">
        <ele>2</ele>
        <time>2011-10-08T08:36:18Z</time>
      </trkpt>
      <trkpt lat="45.71327" lon="-1.17858">
        <ele>3</ele>
        <time>2011-10-08T08:36:23Z</time>
      </trkpt>
      <trkpt lat="45.71335" lon="-1.1786">
        <ele>2</ele>
        <time>2011-10-08T08:36:29Z</time>
      </trkpt>
      <trkpt lat="45.71351" lon="-1.17868">
        <ele>8.1</ele>
        <time>2011-10-08T08:36:43Z</time>
      </trkpt>
      <trkpt lat="45.71353" lon="-1.1787">
        <ele>-1</ele>
        <time>2011-10-08T08:36:46Z</time>
      </trkpt>
      <trkpt lat="45.7136" lon="-1.17877">
        <ele>-3</ele>
        <time>2011-10-08T08:36:57Z</time>
      </trkpt>
      <trkpt lat="45.7137" lon="-1.17884">
        <ele>-3</ele>
        <time>2011-10-08T08:37:06Z</time>
      </trkpt>
      <trkpt lat="45.71372" lon="-1.17886">
        <ele>-3</ele>
        <time>2011-10-08T08:37:08Z</time>
      </trkpt>
      <trkpt lat="45.71381" lon="-1.17901">
        <ele>-2</ele>
        <time>2011-10-08T08:37:21Z</time>
      </trkpt>
      <trkpt lat="45.71385" lon="-1.17922">
        <ele>-2</ele>
        <time>2011-10-08T08:37:33Z</time>
      </trkpt>
      <trkpt lat="45.71385" lon="-1.17923">
        <ele>-2</ele>
        <time>2011-10-08T08:37:34Z</time>
      </trkpt>
      <trkpt lat="45.71389" lon="-1.17944">
        <ele>-2</ele>
        <time>2011-10-08T08:37:47Z</time>
      </trkpt>
      <trkpt lat="45.7139" lon="-1.17946">
        <ele>-3</ele>
        <time>2011-10-08T08:37:49Z</time>
      </trkpt>
      <trkpt lat="45.71392" lon="-1.17959">
        <ele>-3</ele>
        <time>2011-10-08T08:37:57Z</time>
      </trkpt>
      <trkpt lat="45.7139" lon="-1.17973">
        <ele>-4</ele>
        <time>2011-10-08T08:38:07Z</time>
      </trkpt>
      <trkpt lat="45.7139" lon="-1.17979">
        <ele>-5</ele>
        <time>2011-10-08T08:38:11Z</time>
      </trkpt>
      <trkpt lat="45.71393" lon="-1.17998">
        <ele>-8</ele>
        <time>2011-10-08T08:38:24Z</time>
      </trkpt>
      <trkpt lat="45.71393" lon="-1.18002">
        <ele>-8</ele>
        <time>2011-10-08T08:38:26Z</time>
      </trkpt>
      <trkpt lat="45.71394" lon="-1.18017">
        <ele>-8</ele>
        <time>2011-10-08T08:38:35Z</time>
      </trkpt>
      <trkpt lat="45.71393" lon="-1.18031">
        <ele>-9</ele>
        <time>2011-10-08T08:38:44Z</time>
      </trkpt>
      <trkpt lat="45.71396" lon="-1.1804">
        <ele>-9</ele>
        <time>2011-10-08T08:38:50Z</time>
      </trkpt>
      <trkpt lat="45.71398" lon="-1.18057">
        <ele>-9</ele>
        <time>2011-10-08T08:39:00Z</time>
      </trkpt>
      <trkpt lat="45.71403" lon="-1.18075">
        <ele>-11</ele>
        <time>2011-10-08T08:39:13Z</time>
      </trkpt>
      <trkpt lat="45.71404" lon="-1.18078">
        <ele>-11</ele>
        <time>2011-10-08T08:39:16Z</time>
      </trkpt>
      <trkpt lat="45.71412" lon="-1.18089">
        <ele>-10</ele>
        <time>2011-10-08T08:39:27Z</time>
      </trkpt>
      <trkpt lat="45.71415" lon="-1.18092">
        <ele>-9</ele>
        <time>2011-10-08T08:39:30Z</time>
      </trkpt>
      <trkpt lat="45.71424" lon="-1.18106">
        <ele>-6</ele>
        <time>2011-10-08T08:39:44Z</time>
      </trkpt>
      <trkpt lat="45.71428" lon="-1.18115">
        <ele>-6</ele>
        <time>2011-10-08T08:39:52Z</time>
      </trkpt>
      <trkpt lat="45.71432" lon="-1.18123">
        <ele>-8</ele>
        <time>2011-10-08T08:39:58Z</time>
      </trkpt>
      <trkpt lat="45.71436" lon="-1.18137">
        <ele>-13</ele>
        <time>2011-10-08T08:40:09Z</time>
      </trkpt>
      <trkpt lat="45.71438" lon="-1.18139">
        <ele>-14</ele>
        <time>2011-10-08T08:40:11Z</time>
      </trkpt>
      <trkpt lat="45.71444" lon="-1.18154">
        <ele>-17</ele>
        <time>2011-10-08T08:40:23Z</time>
      </trkpt>
      <trkpt lat="45.71448" lon="-1.18162">
        <ele>-18</ele>
        <time>2011-10-08T08:40:31Z</time>
      </trkpt>
      <trkpt lat="45.7145" lon="-1.18168">
        <ele>-19</ele>
        <time>2011-10-08T08:40:35Z</time>
      </trkpt>
      <trkpt lat="45.71448" lon="-1.18187">
        <ele>-24</ele>
        <time>2011-10-08T08:40:49Z</time>
      </trkpt>
      <trkpt lat="45.71446" lon="-1.18201">
        <ele>-27</ele>
        <time>2011-10-08T08:41:00Z</time>
      </trkpt>
      <trkpt lat="45.71443" lon="-1.18217">
        <ele>-32</ele>
        <time>2011-10-08T08:41:13Z</time>
      </trkpt>
      <trkpt lat="45.71442" lon="-1.18227">
        <ele>-36</ele>
        <time>2011-10-08T08:41:23Z</time>
      </trkpt>
      <trkpt lat="45.71442" lon="-1.18239">
        <ele>-37</ele>
        <time>2011-10-08T08:41:30Z</time>
      </trkpt>
      <trkpt lat="45.71444" lon="-1.18255">
        <ele>-34</ele>
        <time>2011-10-08T08:41:40Z</time>
      </trkpt>
      <trkpt lat="45.71445" lon="-1.18277">
        <ele>-30</ele>
        <time>2011-10-08T08:41:53Z</time>
      </trkpt>
      <trkpt lat="45.71444" lon="-1.18289">
        <ele>-28</ele>
        <time>2011-10-08T08:41:59Z</time>
      </trkpt>
      <trkpt lat="45.71445" lon="-1.18299">
        <ele>-29</ele>
        <time>2011-10-08T08:42:04Z</time>
      </trkpt>
      <trkpt lat="45.71445" lon="-1.1831">
        <ele>-29</ele>
        <time>2011-10-08T08:42:10Z</time>
      </trkpt>
      <trkpt lat="45.71445" lon="-1.18323">
        <ele>-30</ele>
        <time>2011-10-08T08:42:18Z</time>
      </trkpt>
      <trkpt lat="45.71444" lon="-1.18338">
        <ele>-31</ele>
        <time>2011-10-08T08:42:27Z</time>
      </trkpt>
      <trkpt lat="45.71445" lon="-1.18356">
        <ele>-32</ele>
        <time>2011-10-08T08:42:38Z</time>
      </trkpt>
      <trkpt lat="45.71445" lon="-1.18371">
        <ele>-34</ele>
        <time>2011-10-08T08:42:48Z</time>
      </trkpt>
      <trkpt lat="45.71443" lon="-1.18377">
        <ele>-35</ele>
        <time>2011-10-08T08:42:52Z</time>
      </trkpt>
      <trkpt lat="45.71444" lon="-1.18383">
        <ele>-35</ele>
        <time>2011-10-08T08:42:58Z</time>
      </trkpt>
      <trkpt lat="45.71444" lon="-1.18391">
        <ele>-38</ele>
        <time>2011-10-08T08:43:05Z</time>
      </trkpt>
      <trkpt lat="45.71443" lon="-1.18395">
        <ele>-38</ele>
        <time>2011-10-08T08:43:08Z</time>
      </trkpt>
      <trkpt lat="45.71445" lon="-1.18401">
        <ele>-38</ele>
        <time>2011-10-08T08:43:12Z</time>
      </trkpt>
      <trkpt lat="45.71444" lon="-1.18419">
        <ele>-39</ele>
        <time>2011-10-08T08:43:23Z</time>
      </trkpt>
      <trkpt lat="45.71444" lon="-1.18423">
        <ele>-39</ele>
        <time>2011-10-08T08:43:25Z</time>
      </trkpt>
      <trkpt lat="45.71441" lon="-1.18436">
        <ele>-38</ele>
        <time>2011-10-08T08:43:33Z</time>
      </trkpt>
      <trkpt lat="45.71443" lon="-1.18446">
        <ele>-39</ele>
        <time>2011-10-08T08:43:38Z</time>
      </trkpt>
      <trkpt lat="45.71443" lon="-1.18467">
        <ele>-37</ele>
        <time>2011-10-08T08:43:51Z</time>
      </trkpt>
      <trkpt lat="45.71441" lon="-1.18489">
        <ele>-35</ele>
        <time>2011-10-08T08:44:02Z</time>
      </trkpt>
      <trkpt lat="45.71443" lon="-1.18507">
        <ele>-29</ele>
        <time>2011-10-08T08:44:15Z</time>
      </trkpt>
      <trkpt lat="45.71442" lon="-1.18511">
        <ele>-29</ele>
        <time>2011-10-08T08:44:17Z</time>
      </trkpt>
      <trkpt lat="45.71441" lon="-1.18536">
        <ele>-28</ele>
        <time>2011-10-08T08:44:30Z</time>
      </trkpt>
      <trkpt lat="45.71442" lon="-1.18557">
        <ele>-25</ele>
        <time>2011-10-08T08:44:41Z</time>
      </trkpt>
      <trkpt lat="45.71442" lon="-1.18563">
        <ele>-25</ele>
        <time>2011-10-08T08:44:44Z</time>
      </trkpt>
      <trkpt lat="45.7144" lon="-1.18584">
        <ele>-28</ele>
        <time>2011-10-08T08:44:57Z</time>
      </trkpt>
      <trkpt lat="45.7144" lon="-1.18597">
        <ele>-30</ele>
        <time>2011-10-08T08:45:06Z</time>
      </trkpt>
      <trkpt lat="45.71441" lon="-1.18601">
        <ele>-31</ele>
        <time>2011-10-08T08:45:08Z</time>
      </trkpt>
      <trkpt lat="45.71442" lon="-1.18611">
        <ele>-31</ele>
        <time>2011-10-08T08:45:15Z</time>
      </trkpt>
      <trkpt lat="45.71442" lon="-1.1862">
        <ele>-32</ele>
        <time>2011-10-08T08:45:20Z</time>
      </trkpt>
      <trkpt lat="45.71443" lon="-1.18629">
        <ele>-30</ele>
        <time>2011-10-08T08:45:25Z</time>
      </trkpt>
      <trkpt lat="45.71442" lon="-1.18633">
        <ele>-29</ele>
        <time>2011-10-08T08:45:27Z</time>
      </trkpt>
      <trkpt lat="45.71443" lon="-1.18655">
        <ele>-24</ele>
        <time>2011-10-08T08:45:39Z</time>
      </trkpt>
      <trkpt lat="45.71442" lon="-1.18672">
        <ele>-25</ele>
        <time>2011-10-08T08:45:50Z</time>
      </trkpt>
      <trkpt lat="45.71441" lon="-1.18678">
        <ele>-25</ele>
        <time>2011-10-08T08:45:55Z</time>
      </trkpt>
      <trkpt lat="45.71442" lon="-1.18684">
        <ele>-26</ele>
        <time>2011-10-08T08:46:00Z</time>
      </trkpt>
      <trkpt lat="45.71442" lon="-1.18698">
        <ele>-26</ele>
        <time>2011-10-08T08:46:10Z</time>
      </trkpt>
      <trkpt lat="45.71442" lon="-1.18707">
        <ele>-26</ele>
        <time>2011-10-08T08:46:16Z</time>
      </trkpt>
      <trkpt lat="45.71441" lon="-1.18723">
        <ele>-28</ele>
        <time>2011-10-08T08:46:28Z</time>
      </trkpt>
      <trkpt lat="45.71439" lon="-1.18741">
        <ele>-27</ele>
        <time>2011-10-08T08:46:40Z</time>
      </trkpt>
      <trkpt lat="45.7144" lon="-1.18759">
        <ele>-27</ele>
        <time>2011-10-08T08:46:52Z</time>
      </trkpt>
      <trkpt lat="45.71443" lon="-1.18771">
        <ele>-24</ele>
        <time>2011-10-08T08:47:00Z</time>
      </trkpt>
      <trkpt lat="45.71451" lon="-1.18785">
        <ele>-14</ele>
        <time>2011-10-08T08:47:09Z</time>
      </trkpt>
      <trkpt lat="45.71454" lon="-1.18787">
        <ele>-13</ele>
        <time>2011-10-08T08:47:12Z</time>
      </trkpt>
      <trkpt lat="45.71462" lon="-1.18794">
        <ele>-9</ele>
        <time>2011-10-08T08:47:19Z</time>
      </trkpt>
      <trkpt lat="45.71475" lon="-1.18798">
        <ele>-3</ele>
        <time>2011-10-08T08:47:31Z</time>
      </trkpt>
      <trkpt lat="45.71478" lon="-1.188">
        <ele>-1</ele>
        <time>2011-10-08T08:47:34Z</time>
      </trkpt>
      <trkpt lat="45.71483" lon="-1.18803">
        <ele>1</ele>
        <time>2011-10-08T08:47:39Z</time>
      </trkpt>
      <trkpt lat="45.71487" lon="-1.18804">
        <ele>2</ele>
        <time>2011-10-08T08:47:43Z</time>
      </trkpt>
      <trkpt lat="45.71501" lon="-1.1881">
        <ele>4</ele>
        <time>2011-10-08T08:47:55Z</time>
      </trkpt>
      <trkpt lat="45.7151" lon="-1.18817">
        <ele>7</ele>
        <time>2011-10-08T08:48:07Z</time>
      </trkpt>
      <trkpt lat="45.71513" lon="-1.18818">
        <ele>8</ele>
        <time>2011-10-08T08:48:10Z</time>
      </trkpt>
      <trkpt lat="45.71526" lon="-1.18823">
        <ele>9</ele>
        <time>2011-10-08T08:48:23Z</time>
      </trkpt>
      <trkpt lat="45.71532" lon="-1.18827">
        <ele>9</ele>
        <time>2011-10-08T08:48:31Z</time>
      </trkpt>
      <trkpt lat="45.71535" lon="-1.18832">
        <ele>9</ele>
        <time>2011-10-08T08:48:35Z</time>
      </trkpt>
      <trkpt lat="45.71537" lon="-1.18838">
        <ele>8</ele>
        <time>2011-10-08T08:48:39Z</time>
      </trkpt>
      <trkpt lat="45.71537" lon="-1.18856">
        <ele>5</ele>
        <time>2011-10-08T08:48:50Z</time>
      </trkpt>
      <trkpt lat="45.71538" lon="-1.18863">
        <ele>3</ele>
        <time>2011-10-08T08:48:55Z</time>
      </trkpt>
      <trkpt lat="45.71539" lon="-1.18869">
        <ele>2</ele>
        <time>2011-10-08T08:48:59Z</time>
      </trkpt>
      <trkpt lat="45.71538" lon="-1.18874">
        <ele>1</ele>
        <time>2011-10-08T08:49:02Z</time>
      </trkpt>
      <trkpt lat="45.71539" lon="-1.18897">
        <ele>-2</ele>
        <time>2011-10-08T08:49:16Z</time>
      </trkpt>
      <trkpt lat="45.7154" lon="-1.18916">
        <ele>-6</ele>
        <time>2011-10-08T08:49:28Z</time>
      </trkpt>
      <trkpt lat="45.7154" lon="-1.18929">
        <ele>-9</ele>
        <time>2011-10-08T08:49:37Z</time>
      </trkpt>
      <trkpt lat="45.7154" lon="-1.18945">
        <ele>-10</ele>
        <time>2011-10-08T08:49:46Z</time>
      </trkpt>
      <trkpt lat="45.71541" lon="-1.18966">
        <ele>-14</ele>
        <time>2011-10-08T08:49:59Z</time>
      </trkpt>
      <trkpt lat="45.71542" lon="-1.18979">
        <ele>-18</ele>
        <time>2011-10-08T08:50:08Z</time>
      </trkpt>
      <trkpt lat="45.71541" lon="-1.18995">
        <ele>-22</ele>
        <time>2011-10-08T08:50:22Z</time>
      </trkpt>
      <trkpt lat="45.7154" lon="-1.19005">
        <ele>-24</ele>
        <time>2011-10-08T08:50:30Z</time>
      </trkpt>
      <trkpt lat="45.71539" lon="-1.19019">
        <ele>-27</ele>
        <time>2011-10-08T08:50:42Z</time>
      </trkpt>
      <trkpt lat="45.71539" lon="-1.19038">
        <ele>-30</ele>
        <time>2011-10-08T08:50:55Z</time>
      </trkpt>
      <trkpt lat="45.7154" lon="-1.19041">
        <ele>-29</ele>
        <time>2011-10-08T08:50:58Z</time>
      </trkpt>
      <trkpt lat="45.71543" lon="-1.19065">
        <ele>-29</ele>
        <time>2011-10-08T08:51:14Z</time>
      </trkpt>
      <trkpt lat="45.71545" lon="-1.19078">
        <ele>-29</ele>
        <time>2011-10-08T08:51:22Z</time>
      </trkpt>
      <trkpt lat="45.71545" lon="-1.19089">
        <ele>-28</ele>
        <time>2011-10-08T08:51:28Z</time>
      </trkpt>
      <trkpt lat="45.71546" lon="-1.19098">
        <ele>-26</ele>
        <time>2011-10-08T08:51:33Z</time>
      </trkpt>
      <trkpt lat="45.71545" lon="-1.19109">
        <ele>-26</ele>
        <time>2011-10-08T08:51:39Z</time>
      </trkpt>
      <trkpt lat="45.71545" lon="-1.19124">
        <ele>-28</ele>
        <time>2011-10-08T08:51:48Z</time>
      </trkpt>
      <trkpt lat="45.71546" lon="-1.19136">
        <ele>-30</ele>
        <time>2011-10-08T08:51:56Z</time>
      </trkpt>
      <trkpt lat="45.71547" lon="-1.19155">
        <ele>-27</ele>
        <time>2011-10-08T08:52:08Z</time>
      </trkpt>
      <trkpt lat="45.71548" lon="-1.19178">
        <ele>-21</ele>
        <time>2011-10-08T08:52:21Z</time>
      </trkpt>
      <trkpt lat="45.71549" lon="-1.19194">
        <ele>-17</ele>
        <time>2011-10-08T08:52:34Z</time>
      </trkpt>
      <trkpt lat="45.7155" lon="-1.19214">
        <ele>-12</ele>
        <time>2011-10-08T08:52:49Z</time>
      </trkpt>
      <trkpt lat="45.7155" lon="-1.19217">
        <ele>-11</ele>
        <time>2011-10-08T08:52:51Z</time>
      </trkpt>
      <trkpt lat="45.7155" lon="-1.19222">
        <ele>-9</ele>
        <time>2011-10-08T08:52:54Z</time>
      </trkpt>
      <trkpt lat="45.71549" lon="-1.19225">
        <ele>-8</ele>
        <time>2011-10-08T08:52:56Z</time>
      </trkpt>
      <trkpt lat="45.71547" lon="-1.19231">
        <ele>-5</ele>
        <time>2011-10-08T08:53:01Z</time>
      </trkpt>
      <trkpt lat="45.71529" lon="-1.19236">
        <ele>1</ele>
        <time>2011-10-08T08:53:16Z</time>
      </trkpt>
      <trkpt lat="45.7151" lon="-1.19241">
        <ele>4</ele>
        <time>2011-10-08T08:53:32Z</time>
      </trkpt>
      <trkpt lat="45.71497" lon="-1.19247">
        <ele>6</ele>
        <time>2011-10-08T08:53:44Z</time>
      </trkpt>
      <trkpt lat="45.71494" lon="-1.19252">
        <ele>6</ele>
        <time>2011-10-08T08:54:03Z</time>
      </trkpt>
      <trkpt lat="45.71493" lon="-1.19251">
        <ele>7</ele>
        <time>2011-10-08T08:54:31Z</time>
      </trkpt>
      <trkpt lat="45.71485" lon="-1.19262">
        <ele>7</ele>
        <time>2011-10-08T08:54:40Z</time>
      </trkpt>
      <trkpt lat="45.71484" lon="-1.19265">
        <ele>7</ele>
        <time>2011-10-08T08:54:42Z</time>
      </trkpt>
      <trkpt lat="45.71478" lon="-1.19273">
        <ele>7</ele>
        <time>2011-10-08T08:54:49Z</time>
      </trkpt>
      <trkpt lat="45.71467" lon="-1.19296">
        <ele>9</ele>
        <time>2011-10-08T08:55:05Z</time>
      </trkpt>
      <trkpt lat="45.71456" lon="-1.19318">
        <ele>9</ele>
        <time>2011-10-08T08:55:20Z</time>
      </trkpt>
      <trkpt lat="45.71445" lon="-1.19342">
        <ele>11</ele>
        <time>2011-10-08T08:55:35Z</time>
      </trkpt>
      <trkpt lat="45.71435" lon="-1.19364">
        <ele>16</ele>
        <time>2011-10-08T08:55:48Z</time>
      </trkpt>
      <trkpt lat="45.71423" lon="-1.19375">
        <ele>19</ele>
        <time>2011-10-08T08:56:01Z</time>
      </trkpt>
      <trkpt lat="45.71415" lon="-1.19377">
        <ele>20</ele>
        <time>2011-10-08T08:56:11Z</time>
      </trkpt>
      <trkpt lat="45.71396" lon="-1.19383">
        <ele>22</ele>
        <time>2011-10-08T08:56:26Z</time>
      </trkpt>
      <trkpt lat="45.71394" lon="-1.19383">
        <ele>23</ele>
        <time>2011-10-08T08:56:28Z</time>
      </trkpt>
      <trkpt lat="45.71372" lon="-1.19384">
        <ele>23</ele>
        <time>2011-10-08T08:56:45Z</time>
      </trkpt>
      <trkpt lat="45.71352" lon="-1.19384">
        <ele>24</ele>
        <time>2011-10-08T08:57:02Z</time>
      </trkpt>
      <trkpt lat="45.7133" lon="-1.19384">
        <ele>22</ele>
        <time>2011-10-08T08:57:18Z</time>
      </trkpt>
      <trkpt lat="45.7131" lon="-1.19386">
        <ele>21</ele>
        <time>2011-10-08T08:57:34Z</time>
      </trkpt>
      <trkpt lat="45.7129" lon="-1.19386">
        <ele>22</ele>
        <time>2011-10-08T08:57:48Z</time>
      </trkpt>
      <trkpt lat="45.71268" lon="-1.19385">
        <ele>23</ele>
        <time>2011-10-08T08:58:05Z</time>
      </trkpt>
      <trkpt lat="45.7125" lon="-1.19388">
        <ele>22</ele>
        <time>2011-10-08T08:58:20Z</time>
      </trkpt>
      <trkpt lat="45.71224" lon="-1.19389">
        <ele>19</ele>
        <time>2011-10-08T08:58:39Z</time>
      </trkpt>
      <trkpt lat="45.71206" lon="-1.19391">
        <ele>19</ele>
        <time>2011-10-08T08:58:53Z</time>
      </trkpt>
      <trkpt lat="45.71197" lon="-1.19394">
        <ele>19</ele>
        <time>2011-10-08T08:59:01Z</time>
      </trkpt>
      <trkpt lat="45.71192" lon="-1.19422">
        <ele>17</ele>
        <time>2011-10-08T08:59:16Z</time>
      </trkpt>
      <trkpt lat="45.71193" lon="-1.19424">
        <ele>17</ele>
        <time>2011-10-08T08:59:17Z</time>
      </trkpt>
      <trkpt lat="45.71192" lon="-1.19428">
        <ele>18</ele>
        <time>2011-10-08T08:59:20Z</time>
      </trkpt>
      <trkpt lat="45.71193" lon="-1.19446">
        <ele>18</ele>
        <time>2011-10-08T08:59:30Z</time>
      </trkpt>
      <trkpt lat="45.71195" lon="-1.1946">
        <ele>20</ele>
        <time>2011-10-08T08:59:37Z</time>
      </trkpt>
      <trkpt lat="45.71195" lon="-1.1947">
        <ele>20</ele>
        <time>2011-10-08T08:59:42Z</time>
      </trkpt>
      <trkpt lat="45.71196" lon="-1.19506">
        <ele>16</ele>
        <time>2011-10-08T09:00:01Z</time>
      </trkpt>
      <trkpt lat="45.71195" lon="-1.19532">
        <ele>12</ele>
        <time>2011-10-08T09:00:16Z</time>
      </trkpt>
      <trkpt lat="45.71194" lon="-1.19561">
        <ele>10</ele>
        <time>2011-10-08T09:00:32Z</time>
      </trkpt>
      <trkpt lat="45.71196" lon="-1.1959">
        <ele>10</ele>
        <time>2011-10-08T09:00:46Z</time>
      </trkpt>
      <trkpt lat="45.71199" lon="-1.19615">
        <ele>13</ele>
        <time>2011-10-08T09:01:00Z</time>
      </trkpt>
      <trkpt lat="45.71201" lon="-1.19637">
        <ele>11</ele>
        <time>2011-10-08T09:01:13Z</time>
      </trkpt>
      <trkpt lat="45.71201" lon="-1.19668">
        <ele>8</ele>
        <time>2011-10-08T09:01:29Z</time>
      </trkpt>
      <trkpt lat="45.71201" lon="-1.19685">
        <ele>4</ele>
        <time>2011-10-08T09:01:38Z</time>
      </trkpt>
      <trkpt lat="45.71201" lon="-1.19694">
        <ele>2</ele>
        <time>2011-10-08T09:01:43Z</time>
      </trkpt>
      <trkpt lat="45.71204" lon="-1.19714">
        <ele>7.4</ele>
        <time>2011-10-08T09:01:54Z</time>
      </trkpt>
      <trkpt lat="45.71203" lon="-1.19723">
        <ele>-1</ele>
        <time>2011-10-08T09:02:00Z</time>
      </trkpt>
      <trkpt lat="45.71205" lon="-1.19736">
        <ele>2</ele>
        <time>2011-10-08T09:02:06Z</time>
      </trkpt>
      <trkpt lat="45.71204" lon="-1.19752">
        <ele>4</ele>
        <time>2011-10-08T09:02:16Z</time>
      </trkpt>
      <trkpt lat="45.71203" lon="-1.19776">
        <ele>10</ele>
        <time>2011-10-08T09:02:27Z</time>
      </trkpt>
      <trkpt lat="45.71207" lon="-1.198">
        <ele>12</ele>
        <time>2011-10-08T09:02:40Z</time>
      </trkpt>
      <trkpt lat="45.71208" lon="-1.19831">
        <ele>8</ele>
        <time>2011-10-08T09:02:57Z</time>
      </trkpt>
      <trkpt lat="45.71206" lon="-1.19861">
        <ele>7</ele>
        <time>2011-10-08T09:03:13Z</time>
      </trkpt>
      <trkpt lat="45.71206" lon="-1.19889">
        <ele>8</ele>
        <time>2011-10-08T09:03:26Z</time>
      </trkpt>
      <trkpt lat="45.71207" lon="-1.19915">
        <ele>6</ele>
        <time>2011-10-08T09:03:40Z</time>
      </trkpt>
      <trkpt lat="45.7121" lon="-1.19941">
        <ele>6</ele>
        <time>2011-10-08T09:03:55Z</time>
      </trkpt>
      <trkpt lat="45.71212" lon="-1.19969">
        <ele>8</ele>
        <time>2011-10-08T09:04:09Z</time>
      </trkpt>
      <trkpt lat="45.71212" lon="-1.19994">
        <ele>3</ele>
        <time>2011-10-08T09:04:23Z</time>
      </trkpt>
      <trkpt lat="45.7121" lon="-1.20019">
        <ele>4</ele>
        <time>2011-10-08T09:04:37Z</time>
      </trkpt>
      <trkpt lat="45.71198" lon="-1.20036">
        <ele>6</ele>
        <time>2011-10-08T09:04:52Z</time>
      </trkpt>
      <trkpt lat="45.71186" lon="-1.20037">
        <ele>5</ele>
        <time>2011-10-08T09:05:02Z</time>
      </trkpt>
      <trkpt lat="45.7117" lon="-1.20036">
        <ele>9</ele>
        <time>2011-10-08T09:05:16Z</time>
      </trkpt>
      <trkpt lat="45.71166" lon="-1.20036">
        <ele>8</ele>
        <time>2011-10-08T09:05:20Z</time>
      </trkpt>
      <trkpt lat="45.71152" lon="-1.20033">
        <ele>9</ele>
        <time>2011-10-08T09:05:33Z</time>
      </trkpt>
      <trkpt lat="45.71142" lon="-1.20034">
        <ele>10</ele>
        <time>2011-10-08T09:05:44Z</time>
      </trkpt>
      <trkpt lat="45.71132" lon="-1.20034">
        <ele>5</ele>
        <time>2011-10-08T09:05:55Z</time>
      </trkpt>
      <trkpt lat="45.71131" lon="-1.20034">
        <ele>5</ele>
        <time>2011-10-08T09:05:56Z</time>
      </trkpt>
      <trkpt lat="45.71119" lon="-1.20035">
        <ele>4</ele>
        <time>2011-10-08T09:06:08Z</time>
      </trkpt>
      <trkpt lat="45.71114" lon="-1.20036">
        <ele>4</ele>
        <time>2011-10-08T09:06:12Z</time>
      </trkpt>
      <trkpt lat="45.71102" lon="-1.20036">
        <ele>4</ele>
        <time>2011-10-08T09:06:25Z</time>
      </trkpt>
      <trkpt lat="45.71098" lon="-1.20034">
        <ele>4</ele>
        <time>2011-10-08T09:06:29Z</time>
      </trkpt>
      <trkpt lat="45.71095" lon="-1.20036">
        <ele>4</ele>
        <time>2011-10-08T09:06:33Z</time>
      </trkpt>
      <trkpt lat="45.71091" lon="-1.20038">
        <ele>4</ele>
        <time>2011-10-08T09:06:37Z</time>
      </trkpt>
      <trkpt lat="45.71083" lon="-1.20039">
        <ele>5</ele>
        <time>2011-10-08T09:06:44Z</time>
      </trkpt>
      <trkpt lat="45.71082" lon="-1.20038">
        <ele>5</ele>
        <time>2011-10-08T09:06:46Z</time>
      </trkpt>
      <trkpt lat="45.71077" lon="-1.2004">
        <ele>7</ele>
        <time>2011-10-08T09:06:52Z</time>
      </trkpt>
      <trkpt lat="45.71074" lon="-1.20041">
        <ele>7</ele>
        <time>2011-10-08T09:06:55Z</time>
      </trkpt>
      <trkpt lat="45.7107" lon="-1.20039">
        <ele>8</ele>
        <time>2011-10-08T09:07:00Z</time>
      </trkpt>
      <trkpt lat="45.71068" lon="-1.2004">
        <ele>8</ele>
        <time>2011-10-08T09:07:02Z</time>
      </trkpt>
      <trkpt lat="45.71066" lon="-1.2004">
        <ele>8</ele>
        <time>2011-10-08T09:07:04Z</time>
      </trkpt>
      <trkpt lat="45.71055" lon="-1.20042">
        <ele>10</ele>
        <time>2011-10-08T09:07:13Z</time>
      </trkpt>
      <trkpt lat="45.71042" lon="-1.20043">
        <ele>12</ele>
        <time>2011-10-08T09:07:25Z</time>
      </trkpt>
      <trkpt lat="45.71037" lon="-1.20045">
        <ele>12</ele>
        <time>2011-10-08T09:07:31Z</time>
      </trkpt>
      <trkpt lat="45.71034" lon="-1.20057">
        <ele>13</ele>
        <time>2011-10-08T09:07:41Z</time>
      </trkpt>
      <trkpt lat="45.71036" lon="-1.20072">
        <ele>11</ele>
        <time>2011-10-08T09:07:51Z</time>
      </trkpt>
      <trkpt lat="45.71035" lon="-1.20077">
        <ele>10</ele>
        <time>2011-10-08T09:07:54Z</time>
      </trkpt>
      <trkpt lat="45.71035" lon="-1.20093">
        <ele>7</ele>
        <time>2011-10-08T09:08:05Z</time>
      </trkpt>
      <trkpt lat="45.71035" lon="-1.20098">
        <ele>6</ele>
        <time>2011-10-08T09:08:08Z</time>
      </trkpt>
      <trkpt lat="45.71035" lon="-1.20103">
        <ele>6</ele>
        <time>2011-10-08T09:08:12Z</time>
      </trkpt>
      <trkpt lat="45.71036" lon="-1.20113">
        <ele>6</ele>
        <time>2011-10-08T09:08:19Z</time>
      </trkpt>
      <trkpt lat="45.71036" lon="-1.20118">
        <ele>6</ele>
        <time>2011-10-08T09:08:22Z</time>
      </trkpt>
      <trkpt lat="45.71037" lon="-1.20121">
        <ele>6</ele>
        <time>2011-10-08T09:08:24Z</time>
      </trkpt>
      <trkpt lat="45.71037" lon="-1.20125">
        <ele>6</ele>
        <time>2011-10-08T09:08:26Z</time>
      </trkpt>
      <trkpt lat="45.71037" lon="-1.20147">
        <ele>5</ele>
        <time>2011-10-08T09:08:40Z</time>
      </trkpt>
      <trkpt lat="45.71037" lon="-1.20169">
        <ele>4</ele>
        <time>2011-10-08T09:08:55Z</time>
      </trkpt>
      <trkpt lat="45.71036" lon="-1.20175">
        <ele>5</ele>
        <time>2011-10-08T09:08:59Z</time>
      </trkpt>
      <trkpt lat="45.71036" lon="-1.20181">
        <ele>5</ele>
        <time>2011-10-08T09:09:02Z</time>
      </trkpt>
      <trkpt lat="45.71039" lon="-1.20191">
        <ele>5</ele>
        <time>2011-10-08T09:09:09Z</time>
      </trkpt>
      <trkpt lat="45.71038" lon="-1.20193">
        <ele>6</ele>
        <time>2011-10-08T09:09:11Z</time>
      </trkpt>
      <trkpt lat="45.7104" lon="-1.20213">
        <ele>4</ele>
        <time>2011-10-08T09:09:24Z</time>
      </trkpt>
      <trkpt lat="45.7104" lon="-1.20231">
        <ele>3</ele>
        <time>2011-10-08T09:09:37Z</time>
      </trkpt>
      <trkpt lat="45.71038" lon="-1.20241">
        <ele>1</ele>
        <time>2011-10-08T09:09:51Z</time>
      </trkpt>
      <trkpt lat="45.71038" lon="-1.20246">
        <ele>10.2</ele>
        <time>2011-10-08T09:10:05Z</time>
      </trkpt>
      <trkpt lat="45.71035" lon="-1.20253">
        <ele>1</ele>
        <time>2011-10-08T09:10:22Z</time>
      </trkpt>
      <trkpt lat="45.71036" lon="-1.2027">
        <ele>3</ele>
        <time>2011-10-08T09:10:36Z</time>
      </trkpt>
      <trkpt lat="45.71037" lon="-1.20276">
        <ele>4</ele>
        <time>2011-10-08T09:11:00Z</time>
      </trkpt>
      <trkpt lat="45.71036" lon="-1.20285">
        <ele>5</ele>
        <time>2011-10-08T09:11:06Z</time>
      </trkpt>
      <trkpt lat="45.71036" lon="-1.20296">
        <ele>6</ele>
        <time>2011-10-08T09:11:13Z</time>
      </trkpt>
      <trkpt lat="45.71037" lon="-1.20309">
        <ele>5</ele>
        <time>2011-10-08T09:11:21Z</time>
      </trkpt>
      <trkpt lat="45.71036" lon="-1.20317">
        <ele>5</ele>
        <time>2011-10-08T09:11:27Z</time>
      </trkpt>
      <trkpt lat="45.71027" lon="-1.20326">
        <ele>3</ele>
        <time>2011-10-08T09:11:38Z</time>
      </trkpt>
      <trkpt lat="45.71021" lon="-1.20334">
        <ele>1</ele>
        <time>2011-10-08T09:12:04Z</time>
      </trkpt>
      <trkpt lat="45.71015" lon="-1.20339">
        <ele>7.5</ele>
        <time>2011-10-08T09:12:11Z</time>
      </trkpt>
      <trkpt lat="45.71011" lon="-1.2034">
        <ele>7.6</ele>
        <time>2011-10-08T09:12:15Z</time>
      </trkpt>
      <trkpt lat="45.71002" lon="-1.20347">
        <ele>1</ele>
        <time>2011-10-08T09:12:24Z</time>
      </trkpt>
      <trkpt lat="45.70991" lon="-1.20354">
        <ele>-2</ele>
        <time>2011-10-08T09:12:36Z</time>
      </trkpt>
      <trkpt lat="45.70988" lon="-1.20362">
        <ele>-2</ele>
        <time>2011-10-08T09:12:42Z</time>
      </trkpt>
      <trkpt lat="45.70982" lon="-1.20371">
        <ele>-2</ele>
        <time>2011-10-08T09:12:49Z</time>
      </trkpt>
      <trkpt lat="45.70967" lon="-1.20384">
        <ele>-2</ele>
        <time>2011-10-08T09:13:03Z</time>
      </trkpt>
      <trkpt lat="45.70961" lon="-1.2039">
        <ele>-4</ele>
        <time>2011-10-08T09:13:09Z</time>
      </trkpt>
      <trkpt lat="45.70948" lon="-1.20408">
        <ele>-5</ele>
        <time>2011-10-08T09:13:24Z</time>
      </trkpt>
      <trkpt lat="45.70935" lon="-1.20426">
        <ele>-8</ele>
        <time>2011-10-08T09:13:39Z</time>
      </trkpt>
      <trkpt lat="45.70925" lon="-1.20444">
        <ele>-9</ele>
        <time>2011-10-08T09:13:53Z</time>
      </trkpt>
      <trkpt lat="45.70913" lon="-1.20463">
        <ele>-10</ele>
        <time>2011-10-08T09:14:05Z</time>
      </trkpt>
      <trkpt lat="45.70904" lon="-1.20475">
        <ele>-11</ele>
        <time>2011-10-08T09:14:15Z</time>
      </trkpt>
      <trkpt lat="45.70903" lon="-1.20476">
        <ele>-11</ele>
        <time>2011-10-08T09:14:17Z</time>
      </trkpt>
      <trkpt lat="45.70889" lon="-1.20488">
        <ele>-11</ele>
        <time>2011-10-08T09:14:32Z</time>
      </trkpt>
      <trkpt lat="45.70877" lon="-1.20502">
        <ele>-11</ele>
        <time>2011-10-08T09:14:46Z</time>
      </trkpt>
      <trkpt lat="45.70875" lon="-1.20504">
        <ele>-11</ele>
        <time>2011-10-08T09:14:48Z</time>
      </trkpt>
      <trkpt lat="45.70867" lon="-1.20522">
        <ele>-12</ele>
        <time>2011-10-08T09:15:01Z</time>
      </trkpt>
      <trkpt lat="45.7086" lon="-1.20544">
        <ele>-14</ele>
        <time>2011-10-08T09:15:15Z</time>
      </trkpt>
      <trkpt lat="45.70859" lon="-1.20549">
        <ele>-15</ele>
        <time>2011-10-08T09:15:18Z</time>
      </trkpt>
      <trkpt lat="45.70854" lon="-1.20567">
        <ele>-20</ele>
        <time>2011-10-08T09:15:31Z</time>
      </trkpt>
      <trkpt lat="45.70847" lon="-1.2058">
        <ele>-21</ele>
        <time>2011-10-08T09:15:42Z</time>
      </trkpt>
      <trkpt lat="45.70845" lon="-1.20582">
        <ele>-22</ele>
        <time>2011-10-08T09:15:44Z</time>
      </trkpt>
      <trkpt lat="45.70839" lon="-1.20589">
        <ele>-23</ele>
        <time>2011-10-08T09:15:50Z</time>
      </trkpt>
      <trkpt lat="45.70834" lon="-1.20595">
        <ele>-25</ele>
        <time>2011-10-08T09:15:55Z</time>
      </trkpt>
      <trkpt lat="45.7082" lon="-1.20607">
        <ele>-25</ele>
        <time>2011-10-08T09:16:10Z</time>
      </trkpt>
      <trkpt lat="45.70813" lon="-1.20616">
        <ele>-26</ele>
        <time>2011-10-08T09:16:19Z</time>
      </trkpt>
      <trkpt lat="45.70808" lon="-1.20628">
        <ele>-28</ele>
        <time>2011-10-08T09:16:27Z</time>
      </trkpt>
      <trkpt lat="45.70804" lon="-1.20639">
        <ele>-27</ele>
        <time>2011-10-08T09:16:34Z</time>
      </trkpt>
      <trkpt lat="45.70799" lon="-1.20656">
        <ele>-28</ele>
        <time>2011-10-08T09:16:46Z</time>
      </trkpt>
      <trkpt lat="45.70792" lon="-1.20671">
        <ele>-29</ele>
        <time>2011-10-08T09:16:58Z</time>
      </trkpt>
      <trkpt lat="45.70789" lon="-1.20675">
        <ele>-29</ele>
        <time>2011-10-08T09:17:02Z</time>
      </trkpt>
      <trkpt lat="45.70773" lon="-1.20687">
        <ele>-23</ele>
        <time>2011-10-08T09:17:14Z</time>
      </trkpt>
      <trkpt lat="45.70765" lon="-1.20691">
        <ele>-20</ele>
        <time>2011-10-08T09:17:21Z</time>
      </trkpt>
      <trkpt lat="45.70761" lon="-1.20691">
        <ele>-17</ele>
        <time>2011-10-08T09:17:25Z</time>
      </trkpt>
      <trkpt lat="45.70746" lon="-1.20696">
        <ele>-13</ele>
        <time>2011-10-08T09:17:37Z</time>
      </trkpt>
      <trkpt lat="45.70734" lon="-1.20697">
        <ele>-9</ele>
        <time>2011-10-08T09:17:47Z</time>
      </trkpt>
      <trkpt lat="45.7073" lon="-1.20699">
        <ele>-8</ele>
        <time>2011-10-08T09:17:51Z</time>
      </trkpt>
      <trkpt lat="45.70722" lon="-1.20699">
        <ele>-7</ele>
        <time>2011-10-08T09:17:57Z</time>
      </trkpt>
      <trkpt lat="45.70713" lon="-1.20702">
        <ele>-6</ele>
        <time>2011-10-08T09:18:05Z</time>
      </trkpt>
      <trkpt lat="45.70703" lon="-1.20705">
        <ele>-4</ele>
        <time>2011-10-08T09:18:16Z</time>
      </trkpt>
      <trkpt lat="45.70698" lon="-1.20717">
        <ele>-2</ele>
        <time>2011-10-08T09:18:30Z</time>
      </trkpt>
      <trkpt lat="45.70697" lon="-1.20729">
        <ele>-1</ele>
        <time>2011-10-08T09:18:39Z</time>
      </trkpt>
      <trkpt lat="45.70698" lon="-1.2075">
        <ele>-4</ele>
        <time>2011-10-08T09:18:52Z</time>
      </trkpt>
      <trkpt lat="45.70697" lon="-1.20754">
        <ele>-3</ele>
        <time>2011-10-08T09:18:57Z</time>
      </trkpt>
      <trkpt lat="45.70698" lon="-1.20759">
        <ele>-4</ele>
        <time>2011-10-08T09:19:01Z</time>
      </trkpt>
      <trkpt lat="45.707" lon="-1.20774">
        <ele>-5</ele>
        <time>2011-10-08T09:19:10Z</time>
      </trkpt>
      <trkpt lat="45.707" lon="-1.20787">
        <ele>-5</ele>
        <time>2011-10-08T09:19:17Z</time>
      </trkpt>
      <trkpt lat="45.70701" lon="-1.20808">
        <ele>-6</ele>
        <time>2011-10-08T09:19:30Z</time>
      </trkpt>
      <trkpt lat="45.707" lon="-1.20812">
        <ele>-5</ele>
        <time>2011-10-08T09:19:32Z</time>
      </trkpt>
      <trkpt lat="45.70701" lon="-1.20816">
        <ele>-5</ele>
        <time>2011-10-08T09:19:35Z</time>
      </trkpt>
      <trkpt lat="45.70702" lon="-1.20832">
        <ele>-5</ele>
        <time>2011-10-08T09:19:45Z</time>
      </trkpt>
      <trkpt lat="45.70701" lon="-1.20837">
        <ele>-6</ele>
        <time>2011-10-08T09:19:48Z</time>
      </trkpt>
      <trkpt lat="45.70701" lon="-1.20843">
        <ele>-6</ele>
        <time>2011-10-08T09:19:57Z</time>
      </trkpt>
      <trkpt lat="45.70702" lon="-1.20847">
        <ele>-6</ele>
        <time>2011-10-08T09:19:59Z</time>
      </trkpt>
      <trkpt lat="45.70703" lon="-1.20867">
        <ele>-5</ele>
        <time>2011-10-08T09:20:12Z</time>
      </trkpt>
      <trkpt lat="45.70705" lon="-1.20879">
        <ele>-6</ele>
        <time>2011-10-08T09:20:19Z</time>
      </trkpt>
      <trkpt lat="45.70704" lon="-1.20898">
        <ele>-7</ele>
        <time>2011-10-08T09:20:32Z</time>
      </trkpt>
      <trkpt lat="45.70704" lon="-1.20914">
        <ele>-11</ele>
        <time>2011-10-08T09:20:43Z</time>
      </trkpt>
      <trkpt lat="45.70704" lon="-1.20917">
        <ele>-11</ele>
        <time>2011-10-08T09:20:45Z</time>
      </trkpt>
      <trkpt lat="45.70703" lon="-1.2092">
        <ele>-12</ele>
        <time>2011-10-08T09:20:47Z</time>
      </trkpt>
      <trkpt lat="45.70705" lon="-1.20931">
        <ele>-14</ele>
        <time>2011-10-08T09:20:58Z</time>
      </trkpt>
      <trkpt lat="45.70705" lon="-1.20943">
        <ele>-14</ele>
        <time>2011-10-08T09:21:06Z</time>
      </trkpt>
      <trkpt lat="45.70705" lon="-1.20952">
        <ele>-14</ele>
        <time>2011-10-08T09:21:15Z</time>
      </trkpt>
      <trkpt lat="45.70703" lon="-1.20967">
        <ele>-12</ele>
        <time>2011-10-08T09:21:25Z</time>
      </trkpt>
      <trkpt lat="45.70702" lon="-1.20973">
        <ele>-10</ele>
        <time>2011-10-08T09:21:29Z</time>
      </trkpt>
      <trkpt lat="45.70703" lon="-1.20985">
        <ele>-8</ele>
        <time>2011-10-08T09:21:39Z</time>
      </trkpt>
      <trkpt lat="45.70703" lon="-1.20986">
        <ele>-7</ele>
        <time>2011-10-08T09:21:40Z</time>
      </trkpt>
      <trkpt lat="45.70703" lon="-1.20991">
        <ele>-7</ele>
        <time>2011-10-08T09:21:44Z</time>
      </trkpt>
      <trkpt lat="45.70703" lon="-1.21">
        <ele>-6</ele>
        <time>2011-10-08T09:21:55Z</time>
      </trkpt>
      <trkpt lat="45.70703" lon="-1.21006">
        <ele>-4</ele>
        <time>2011-10-08T09:22:08Z</time>
      </trkpt>
      <trkpt lat="45.70704" lon="-1.21009">
        <ele>-3</ele>
        <time>2011-10-08T09:22:25Z</time>
      </trkpt>
      <trkpt lat="45.70704" lon="-1.21014">
        <ele>-2</ele>
        <time>2011-10-08T09:22:43Z</time>
      </trkpt>
      <trkpt lat="45.70702" lon="-1.2102">
        <ele>14.3</ele>
        <time>2011-10-08T09:23:02Z</time>
      </trkpt>
      <trkpt lat="45.70702" lon="-1.21029">
        <ele>3</ele>
        <time>2011-10-08T09:23:12Z</time>
      </trkpt>
      <trkpt lat="45.70703" lon="-1.21032">
        <ele>4</ele>
        <time>2011-10-08T09:23:25Z</time>
      </trkpt>
      <trkpt lat="45.70705" lon="-1.21045">
        <ele>6</ele>
        <time>2011-10-08T09:23:39Z</time>
      </trkpt>
      <trkpt lat="45.70706" lon="-1.21052">
        <ele>7</ele>
        <time>2011-10-08T09:23:48Z</time>
      </trkpt>
      <trkpt lat="45.70705" lon="-1.21057">
        <ele>6</ele>
        <time>2011-10-08T09:23:52Z</time>
      </trkpt>
      <trkpt lat="45.70706" lon="-1.21069">
        <ele>4</ele>
        <time>2011-10-08T09:24:05Z</time>
      </trkpt>
      <trkpt lat="45.70708" lon="-1.21078">
        <ele>2</ele>
        <time>2011-10-08T09:24:13Z</time>
      </trkpt>
      <trkpt lat="45.70703" lon="-1.21093">
        <ele>-3</ele>
        <time>2011-10-08T09:24:31Z</time>
      </trkpt>
      <trkpt lat="45.70701" lon="-1.21092">
        <ele>-3</ele>
        <time>2011-10-08T09:24:33Z</time>
      </trkpt>
      <trkpt lat="45.70692" lon="-1.21091">
        <ele>-5</ele>
        <time>2011-10-08T09:24:44Z</time>
      </trkpt>
      <trkpt lat="45.70685" lon="-1.21089">
        <ele>-6</ele>
        <time>2011-10-08T09:24:54Z</time>
      </trkpt>
      <trkpt lat="45.70676" lon="-1.21091">
        <ele>-7</ele>
        <time>2011-10-08T09:25:06Z</time>
      </trkpt>
      <trkpt lat="45.7067" lon="-1.21091">
        <ele>-6</ele>
        <time>2011-10-08T09:25:16Z</time>
      </trkpt>
      <trkpt lat="45.70667" lon="-1.21096">
        <ele>-7</ele>
        <time>2011-10-08T09:25:31Z</time>
      </trkpt>
      <trkpt lat="45.70669" lon="-1.21111">
        <ele>-7</ele>
        <time>2011-10-08T09:25:46Z</time>
      </trkpt>
      <trkpt lat="45.70671" lon="-1.21123">
        <ele>-8</ele>
        <time>2011-10-08T09:26:00Z</time>
      </trkpt>
      <trkpt lat="45.70673" lon="-1.21135">
        <ele>-7</ele>
        <time>2011-10-08T09:26:17Z</time>
      </trkpt>
      <trkpt lat="45.70675" lon="-1.21152">
        <ele>-5</ele>
        <time>2011-10-08T09:26:32Z</time>
      </trkpt>
      <trkpt lat="45.70679" lon="-1.21158">
        <ele>1</ele>
        <time>2011-10-08T09:26:42Z</time>
      </trkpt>
      <trkpt lat="45.70683" lon="-1.21163">
        <ele>2</ele>
        <time>2011-10-08T09:26:51Z</time>
      </trkpt>
      <trkpt lat="45.70687" lon="-1.21169">
        <ele>3</ele>
        <time>2011-10-08T09:27:02Z</time>
      </trkpt>
      <trkpt lat="45.7069" lon="-1.21174">
        <ele>4</ele>
        <time>2011-10-08T09:27:12Z</time>
      </trkpt>
      <trkpt lat="45.70695" lon="-1.21181">
        <ele>7</ele>
        <time>2011-10-08T09:27:21Z</time>
      </trkpt>
      <trkpt lat="45.707" lon="-1.21187">
        <ele>8</ele>
        <time>2011-10-08T09:27:33Z</time>
      </trkpt>
      <trkpt lat="45.707" lon="-1.21187">
        <ele>9</ele>
        <time>2011-10-08T09:27:34Z</time>
      </trkpt>
      <trkpt lat="45.70707" lon="-1.2119">
        <ele>13</ele>
        <time>2011-10-08T09:27:45Z</time>
      </trkpt>
      <trkpt lat="45.70708" lon="-1.21197">
        <ele>13</ele>
        <time>2011-10-08T09:28:07Z</time>
      </trkpt>
      <trkpt lat="45.70708" lon="-1.212">
        <ele>13</ele>
        <time>2011-10-08T09:28:10Z</time>
      </trkpt>
      <trkpt lat="45.70711" lon="-1.21212">
        <ele>10</ele>
        <time>2011-10-08T09:28:20Z</time>
      </trkpt>
      <trkpt lat="45.70712" lon="-1.21222">
        <ele>6</ele>
        <time>2011-10-08T09:28:29Z</time>
      </trkpt>
      <trkpt lat="45.70712" lon="-1.21229">
        <ele>5</ele>
        <time>2011-10-08T09:28:33Z</time>
      </trkpt>
      <trkpt lat="45.70712" lon="-1.21241">
        <ele>2</ele>
        <time>2011-10-08T09:28:41Z</time>
      </trkpt>
      <trkpt lat="45.70712" lon="-1.21257">
        <ele>-1</ele>
        <time>2011-10-08T09:28:52Z</time>
      </trkpt>
      <trkpt lat="45.70713" lon="-1.21268">
        <ele>-3</ele>
        <time>2011-10-08T09:29:00Z</time>
      </trkpt>
      <trkpt lat="45.70713" lon="-1.21286">
        <ele>-3</ele>
        <time>2011-10-08T09:29:13Z</time>
      </trkpt>
      <trkpt lat="45.70716" lon="-1.213">
        <ele>-6</ele>
        <time>2011-10-08T09:29:23Z</time>
      </trkpt>
      <trkpt lat="45.70717" lon="-1.2131">
        <ele>-8</ele>
        <time>2011-10-08T09:29:31Z</time>
      </trkpt>
      <trkpt lat="45.70723" lon="-1.21321">
        <ele>-8</ele>
        <time>2011-10-08T09:29:41Z</time>
      </trkpt>
      <trkpt lat="45.70725" lon="-1.21323">
        <ele>-9</ele>
        <time>2011-10-08T09:29:44Z</time>
      </trkpt>
      <trkpt lat="45.70727" lon="-1.2133">
        <ele>-8</ele>
        <time>2011-10-08T09:29:50Z</time>
      </trkpt>
      <trkpt lat="45.70724" lon="-1.21341">
        <ele>-1</ele>
        <time>2011-10-08T09:30:03Z</time>
      </trkpt>
      <trkpt lat="45.70721" lon="-1.21342">
        <ele>23.6</ele>
        <time>2011-10-08T09:30:06Z</time>
      </trkpt>
      <trkpt lat="45.70704" lon="-1.21347">
        <ele>5</ele>
        <time>2011-10-08T09:30:20Z</time>
      </trkpt>
      <trkpt lat="45.70687" lon="-1.21355">
        <ele>11</ele>
        <time>2011-10-08T09:30:36Z</time>
      </trkpt>
      <trkpt lat="45.70679" lon="-1.21356">
        <ele>11</ele>
        <time>2011-10-08T09:30:49Z</time>
      </trkpt>
      <trkpt lat="45.70657" lon="-1.21358">
        <ele>13</ele>
        <time>2011-10-08T09:31:05Z</time>
      </trkpt>
      <trkpt lat="45.70647" lon="-1.21359">
        <ele>12</ele>
        <time>2011-10-08T09:31:13Z</time>
      </trkpt>
      <trkpt lat="45.70636" lon="-1.21358">
        <ele>12</ele>
        <time>2011-10-08T09:31:24Z</time>
      </trkpt>
      <trkpt lat="45.70615" lon="-1.21359">
        <ele>11</ele>
        <time>2011-10-08T09:31:41Z</time>
      </trkpt>
      <trkpt lat="45.70596" lon="-1.21363">
        <ele>11</ele>
        <time>2011-10-08T09:31:56Z</time>
      </trkpt>
      <trkpt lat="45.70573" lon="-1.21362">
        <ele>11</ele>
        <time>2011-10-08T09:32:13Z</time>
      </trkpt>
      <trkpt lat="45.70552" lon="-1.21365">
        <ele>12</ele>
        <time>2011-10-08T09:32:28Z</time>
      </trkpt>
      <trkpt lat="45.70546" lon="-1.21366">
        <ele>11</ele>
        <time>2011-10-08T09:32:33Z</time>
      </trkpt>
      <trkpt lat="45.70536" lon="-1.21367">
        <ele>11</ele>
        <time>2011-10-08T09:32:47Z</time>
      </trkpt>
      <trkpt lat="45.70536" lon="-1.21378">
        <ele>9</ele>
        <time>2011-10-08T09:32:56Z</time>
      </trkpt>
      <trkpt lat="45.70539" lon="-1.21397">
        <ele>4</ele>
        <time>2011-10-08T09:33:08Z</time>
      </trkpt>
      <trkpt lat="45.70541" lon="-1.21401">
        <ele>2</ele>
        <time>2011-10-08T09:33:11Z</time>
      </trkpt>
      <trkpt lat="45.70542" lon="-1.21413">
        <ele>-6</ele>
        <time>2011-10-08T09:33:20Z</time>
      </trkpt>
      <trkpt lat="45.70542" lon="-1.21422">
        <ele>-10</ele>
        <time>2011-10-08T09:33:26Z</time>
      </trkpt>
      <trkpt lat="45.70545" lon="-1.21437">
        <ele>-17</ele>
        <time>2011-10-08T09:33:37Z</time>
      </trkpt>
      <trkpt lat="45.70547" lon="-1.21449">
        <ele>-21</ele>
        <time>2011-10-08T09:33:48Z</time>
      </trkpt>
      <trkpt lat="45.70548" lon="-1.21463">
        <ele>-26</ele>
        <time>2011-10-08T09:33:58Z</time>
      </trkpt>
      <trkpt lat="45.70548" lon="-1.21477">
        <ele>-29</ele>
        <time>2011-10-08T09:34:09Z</time>
      </trkpt>
      <trkpt lat="45.70551" lon="-1.21485">
        <ele>-48</ele>
        <time>2011-10-08T09:34:24Z</time>
      </trkpt>
      <trkpt lat="45.70548" lon="-1.21504">
        <ele>-46</ele>
        <time>2011-10-08T09:34:35Z</time>
      </trkpt>
      <trkpt lat="45.70549" lon="-1.21517">
        <ele>-43</ele>
        <time>2011-10-08T09:34:42Z</time>
      </trkpt>
      <trkpt lat="45.70551" lon="-1.21531">
        <ele>-40</ele>
        <time>2011-10-08T09:34:50Z</time>
      </trkpt>
      <trkpt lat="45.70551" lon="-1.2154">
        <ele>-39</ele>
        <time>2011-10-08T09:34:55Z</time>
      </trkpt>
      <trkpt lat="45.70551" lon="-1.21546">
        <ele>-39</ele>
        <time>2011-10-08T09:34:58Z</time>
      </trkpt>
      <trkpt lat="45.70551" lon="-1.2155">
        <ele>-39</ele>
        <time>2011-10-08T09:35:00Z</time>
      </trkpt>
      <trkpt lat="45.70554" lon="-1.21566">
        <ele>-36</ele>
        <time>2011-10-08T09:35:09Z</time>
      </trkpt>
      <trkpt lat="45.70553" lon="-1.21585">
        <ele>-35</ele>
        <time>2011-10-08T09:35:19Z</time>
      </trkpt>
      <trkpt lat="45.70553" lon="-1.21592">
        <ele>-40</ele>
        <time>2011-10-08T09:35:26Z</time>
      </trkpt>
      <trkpt lat="45.70556" lon="-1.21607">
        <ele>-45</ele>
        <time>2011-10-08T09:35:39Z</time>
      </trkpt>
      <trkpt lat="45.7056" lon="-1.21621">
        <ele>-47</ele>
        <time>2011-10-08T09:35:54Z</time>
      </trkpt>
      <trkpt lat="45.70557" lon="-1.21634">
        <ele>-47</ele>
        <time>2011-10-08T09:36:03Z</time>
      </trkpt>
      <trkpt lat="45.70559" lon="-1.21649">
        <ele>-49</ele>
        <time>2011-10-08T09:36:19Z</time>
      </trkpt>
      <trkpt lat="45.7056" lon="-1.21658">
        <ele>-50</ele>
        <time>2011-10-08T09:36:26Z</time>
      </trkpt>
      <trkpt lat="45.70561" lon="-1.21677">
        <ele>-54</ele>
        <time>2011-10-08T09:36:37Z</time>
      </trkpt>
      <trkpt lat="45.7056" lon="-1.21686">
        <ele>-54</ele>
        <time>2011-10-08T09:36:41Z</time>
      </trkpt>
      <trkpt lat="45.7056" lon="-1.21693">
        <ele>-54</ele>
        <time>2011-10-08T09:36:45Z</time>
      </trkpt>
      <trkpt lat="45.70562" lon="-1.21707">
        <ele>-52</ele>
        <time>2011-10-08T09:36:54Z</time>
      </trkpt>
      <trkpt lat="45.70562" lon="-1.21723">
        <ele>-51</ele>
        <time>2011-10-08T09:37:04Z</time>
      </trkpt>
      <trkpt lat="45.70563" lon="-1.21729">
        <ele>-52</ele>
        <time>2011-10-08T09:37:09Z</time>
      </trkpt>
      <trkpt lat="45.70562" lon="-1.21735">
        <ele>-52</ele>
        <time>2011-10-08T09:37:13Z</time>
      </trkpt>
      <trkpt lat="45.70557" lon="-1.21746">
        <ele>-50</ele>
        <time>2011-10-08T09:37:21Z</time>
      </trkpt>
      <trkpt lat="45.70545" lon="-1.21765">
        <ele>-49</ele>
        <time>2011-10-08T09:37:34Z</time>
      </trkpt>
      <trkpt lat="45.70536" lon="-1.21778">
        <ele>-47</ele>
        <time>2011-10-08T09:37:44Z</time>
      </trkpt>
      <trkpt lat="45.70534" lon="-1.21783">
        <ele>-46</ele>
        <time>2011-10-08T09:37:47Z</time>
      </trkpt>
      <trkpt lat="45.70532" lon="-1.21786">
        <ele>-46</ele>
        <time>2011-10-08T09:37:49Z</time>
      </trkpt>
      <trkpt lat="45.70528" lon="-1.21796">
        <ele>-44</ele>
        <time>2011-10-08T09:37:59Z</time>
      </trkpt>
      <trkpt lat="45.70519" lon="-1.21814">
        <ele>-39</ele>
        <time>2011-10-08T09:38:11Z</time>
      </trkpt>
      <trkpt lat="45.70516" lon="-1.21817">
        <ele>-40</ele>
        <time>2011-10-08T09:38:16Z</time>
      </trkpt>
      <trkpt lat="45.70507" lon="-1.21831">
        <ele>-39</ele>
        <time>2011-10-08T09:38:27Z</time>
      </trkpt>
      <trkpt lat="45.70497" lon="-1.21844">
        <ele>-35</ele>
        <time>2011-10-08T09:38:36Z</time>
      </trkpt>
      <trkpt lat="45.70488" lon="-1.21855">
        <ele>-32</ele>
        <time>2011-10-08T09:38:47Z</time>
      </trkpt>
      <trkpt lat="45.70479" lon="-1.21868">
        <ele>-29</ele>
        <time>2011-10-08T09:38:58Z</time>
      </trkpt>
      <trkpt lat="45.70477" lon="-1.21871">
        <ele>-30</ele>
        <time>2011-10-08T09:39:02Z</time>
      </trkpt>
      <trkpt lat="45.70469" lon="-1.21881">
        <ele>-31</ele>
        <time>2011-10-08T09:39:11Z</time>
      </trkpt>
      <trkpt lat="45.70467" lon="-1.21882">
        <ele>-31</ele>
        <time>2011-10-08T09:39:13Z</time>
      </trkpt>
      <trkpt lat="45.70465" lon="-1.21885">
        <ele>-32</ele>
        <time>2011-10-08T09:39:16Z</time>
      </trkpt>
      <trkpt lat="45.70462" lon="-1.21888">
        <ele>-33</ele>
        <time>2011-10-08T09:39:20Z</time>
      </trkpt>
      <trkpt lat="45.70457" lon="-1.21897">
        <ele>-36</ele>
        <time>2011-10-08T09:39:28Z</time>
      </trkpt>
      <trkpt lat="45.70453" lon="-1.21901">
        <ele>-37</ele>
        <time>2011-10-08T09:39:33Z</time>
      </trkpt>
      <trkpt lat="45.70449" lon="-1.21906">
        <ele>-38</ele>
        <time>2011-10-08T09:39:37Z</time>
      </trkpt>
      <trkpt lat="45.70443" lon="-1.21915">
        <ele>-35</ele>
        <time>2011-10-08T09:39:48Z</time>
      </trkpt>
      <trkpt lat="45.70438" lon="-1.21924">
        <ele>-34</ele>
        <time>2011-10-08T09:40:11Z</time>
      </trkpt>
      <trkpt lat="45.70434" lon="-1.21933">
        <ele>-34</ele>
        <time>2011-10-08T09:40:18Z</time>
      </trkpt>
      <trkpt lat="45.70423" lon="-1.21948">
        <ele>-32</ele>
        <time>2011-10-08T09:40:29Z</time>
      </trkpt>
      <trkpt lat="45.70418" lon="-1.2196">
        <ele>-30</ele>
        <time>2011-10-08T09:40:38Z</time>
      </trkpt>
      <trkpt lat="45.70415" lon="-1.21966">
        <ele>-29</ele>
        <time>2011-10-08T09:40:42Z</time>
      </trkpt>
      <trkpt lat="45.70404" lon="-1.21983">
        <ele>-28</ele>
        <time>2011-10-08T09:40:55Z</time>
      </trkpt>
      <trkpt lat="45.70397" lon="-1.21992">
        <ele>-26</ele>
        <time>2011-10-08T09:41:03Z</time>
      </trkpt>
      <trkpt lat="45.70388" lon="-1.22007">
        <ele>-24</ele>
        <time>2011-10-08T09:41:15Z</time>
      </trkpt>
      <trkpt lat="45.70379" lon="-1.22023">
        <ele>-21</ele>
        <time>2011-10-08T09:41:26Z</time>
      </trkpt>
      <trkpt lat="45.7037" lon="-1.22036">
        <ele>-23</ele>
        <time>2011-10-08T09:41:39Z</time>
      </trkpt>
      <trkpt lat="45.70365" lon="-1.22042">
        <ele>-27</ele>
        <time>2011-10-08T09:41:49Z</time>
      </trkpt>
      <trkpt lat="45.70354" lon="-1.22052">
        <ele>-31</ele>
        <time>2011-10-08T09:42:04Z</time>
      </trkpt>
      <trkpt lat="45.7035" lon="-1.2206">
        <ele>-36</ele>
        <time>2011-10-08T09:42:17Z</time>
      </trkpt>
      <trkpt lat="45.70343" lon="-1.22069">
        <ele>-42</ele>
        <time>2011-10-08T09:42:28Z</time>
      </trkpt>
      <trkpt lat="45.70341" lon="-1.22071">
        <ele>-43</ele>
        <time>2011-10-08T09:42:30Z</time>
      </trkpt>
      <trkpt lat="45.70334" lon="-1.22082">
        <ele>-45</ele>
        <time>2011-10-08T09:42:38Z</time>
      </trkpt>
      <trkpt lat="45.70324" lon="-1.22092">
        <ele>-46</ele>
        <time>2011-10-08T09:42:48Z</time>
      </trkpt>
      <trkpt lat="45.70323" lon="-1.22095">
        <ele>-46</ele>
        <time>2011-10-08T09:42:50Z</time>
      </trkpt>
      <trkpt lat="45.70317" lon="-1.22104">
        <ele>-46</ele>
        <time>2011-10-08T09:42:55Z</time>
      </trkpt>
      <trkpt lat="45.70308" lon="-1.22117">
        <ele>-44</ele>
        <time>2011-10-08T09:43:06Z</time>
      </trkpt>
      <trkpt lat="45.70302" lon="-1.22123">
        <ele>-46</ele>
        <time>2011-10-08T09:43:16Z</time>
      </trkpt>
      <trkpt lat="45.70293" lon="-1.22133">
        <ele>-48</ele>
        <time>2011-10-08T09:43:26Z</time>
      </trkpt>
      <trkpt lat="45.70285" lon="-1.22144">
        <ele>-48</ele>
        <time>2011-10-08T09:43:36Z</time>
      </trkpt>
      <trkpt lat="45.70276" lon="-1.22157">
        <ele>-49</ele>
        <time>2011-10-08T09:43:46Z</time>
      </trkpt>
      <trkpt lat="45.70272" lon="-1.22161">
        <ele>-48</ele>
        <time>2011-10-08T09:43:50Z</time>
      </trkpt>
      <trkpt lat="45.70264" lon="-1.22175">
        <ele>-49</ele>
        <time>2011-10-08T09:44:02Z</time>
      </trkpt>
      <trkpt lat="45.70263" lon="-1.22175">
        <ele>-49</ele>
        <time>2011-10-08T09:44:03Z</time>
      </trkpt>
      <trkpt lat="45.70262" lon="-1.22179">
        <ele>-48</ele>
        <time>2011-10-08T09:44:05Z</time>
      </trkpt>
      <trkpt lat="45.70254" lon="-1.22189">
        <ele>-45</ele>
        <time>2011-10-08T09:44:16Z</time>
      </trkpt>
      <trkpt lat="45.70247" lon="-1.22198">
        <ele>-45</ele>
        <time>2011-10-08T09:44:26Z</time>
      </trkpt>
      <trkpt lat="45.70242" lon="-1.22207">
        <ele>-45</ele>
        <time>2011-10-08T09:44:32Z</time>
      </trkpt>
      <trkpt lat="45.70239" lon="-1.22211">
        <ele>-44</ele>
        <time>2011-10-08T09:44:34Z</time>
      </trkpt>
      <trkpt lat="45.70231" lon="-1.22224">
        <ele>-42</ele>
        <time>2011-10-08T09:44:42Z</time>
      </trkpt>
      <trkpt lat="45.70222" lon="-1.2224">
        <ele>-39</ele>
        <time>2011-10-08T09:44:53Z</time>
      </trkpt>
      <trkpt lat="45.70209" lon="-1.22261">
        <ele>-34</ele>
        <time>2011-10-08T09:45:05Z</time>
      </trkpt>
      <trkpt lat="45.702" lon="-1.22275">
        <ele>-32</ele>
        <time>2011-10-08T09:45:15Z</time>
      </trkpt>
      <trkpt lat="45.7019" lon="-1.2229">
        <ele>-31</ele>
        <time>2011-10-08T09:45:25Z</time>
      </trkpt>
      <trkpt lat="45.70187" lon="-1.22293">
        <ele>-30</ele>
        <time>2011-10-08T09:45:28Z</time>
      </trkpt>
      <trkpt lat="45.70175" lon="-1.22306">
        <ele>-32</ele>
        <time>2011-10-08T09:45:41Z</time>
      </trkpt>
      <trkpt lat="45.70167" lon="-1.22317">
        <ele>-36</ele>
        <time>2011-10-08T09:45:52Z</time>
      </trkpt>
      <trkpt lat="45.70161" lon="-1.22325">
        <ele>-41</ele>
        <time>2011-10-08T09:46:02Z</time>
      </trkpt>
      <trkpt lat="45.70157" lon="-1.22333">
        <ele>-43</ele>
        <time>2011-10-08T09:46:12Z</time>
      </trkpt>
      <trkpt lat="45.70149" lon="-1.22342">
        <ele>-42</ele>
        <time>2011-10-08T09:46:23Z</time>
      </trkpt>
      <trkpt lat="45.70141" lon="-1.22353">
        <ele>-40</ele>
        <time>2011-10-08T09:46:33Z</time>
      </trkpt>
      <trkpt lat="45.70133" lon="-1.22364">
        <ele>-38</ele>
        <time>2011-10-08T09:46:42Z</time>
      </trkpt>
      <trkpt lat="45.70126" lon="-1.22375">
        <ele>-36</ele>
        <time>2011-10-08T09:46:53Z</time>
      </trkpt>
      <trkpt lat="45.70118" lon="-1.22384">
        <ele>-37</ele>
        <time>2011-10-08T09:47:03Z</time>
      </trkpt>
      <trkpt lat="45.70111" lon="-1.224">
        <ele>-36</ele>
        <time>2011-10-08T09:47:14Z</time>
      </trkpt>
      <trkpt lat="45.70104" lon="-1.22416">
        <ele>-33</ele>
        <time>2011-10-08T09:47:25Z</time>
      </trkpt>
      <trkpt lat="45.70093" lon="-1.2243">
        <ele>-28</ele>
        <time>2011-10-08T09:47:38Z</time>
      </trkpt>
      <trkpt lat="45.70083" lon="-1.22443">
        <ele>-26</ele>
        <time>2011-10-08T09:47:48Z</time>
      </trkpt>
      <trkpt lat="45.70081" lon="-1.22447">
        <ele>-25</ele>
        <time>2011-10-08T09:47:52Z</time>
      </trkpt>
      <trkpt lat="45.70072" lon="-1.2246">
        <ele>-22</ele>
        <time>2011-10-08T09:48:04Z</time>
      </trkpt>
      <trkpt lat="45.70064" lon="-1.22473">
        <ele>-20</ele>
        <time>2011-10-08T09:48:15Z</time>
      </trkpt>
      <trkpt lat="45.70064" lon="-1.22474">
        <ele>-20</ele>
        <time>2011-10-08T09:48:16Z</time>
      </trkpt>
      <trkpt lat="45.7006" lon="-1.22481">
        <ele>-17</ele>
        <time>2011-10-08T09:48:24Z</time>
      </trkpt>
      <trkpt lat="45.7005" lon="-1.22499">
        <ele>-13</ele>
        <time>2011-10-08T09:48:35Z</time>
      </trkpt>
      <trkpt lat="45.70048" lon="-1.22503">
        <ele>-13</ele>
        <time>2011-10-08T09:48:39Z</time>
      </trkpt>
      <trkpt lat="45.70042" lon="-1.22525">
        <ele>-9</ele>
        <time>2011-10-08T09:48:51Z</time>
      </trkpt>
      <trkpt lat="45.70042" lon="-1.22549">
        <ele>-7</ele>
        <time>2011-10-08T09:49:03Z</time>
      </trkpt>
      <trkpt lat="45.70042" lon="-1.22551">
        <ele>-7</ele>
        <time>2011-10-08T09:49:04Z</time>
      </trkpt>
      <trkpt lat="45.70043" lon="-1.22558">
        <ele>-7</ele>
        <time>2011-10-08T09:49:08Z</time>
      </trkpt>
      <trkpt lat="45.70043" lon="-1.22576">
        <ele>-7</ele>
        <time>2011-10-08T09:49:18Z</time>
      </trkpt>
      <trkpt lat="45.70044" lon="-1.22596">
        <ele>-9</ele>
        <time>2011-10-08T09:49:29Z</time>
      </trkpt>
      <trkpt lat="45.70044" lon="-1.22609">
        <ele>-10</ele>
        <time>2011-10-08T09:49:37Z</time>
      </trkpt>
      <trkpt lat="45.70043" lon="-1.22628">
        <ele>-11</ele>
        <time>2011-10-08T09:49:49Z</time>
      </trkpt>
      <trkpt lat="45.70043" lon="-1.22633">
        <ele>-11</ele>
        <time>2011-10-08T09:49:51Z</time>
      </trkpt>
      <trkpt lat="45.70042" lon="-1.22646">
        <ele>-14</ele>
        <time>2011-10-08T09:50:00Z</time>
      </trkpt>
      <trkpt lat="45.70043" lon="-1.22648">
        <ele>-15</ele>
        <time>2011-10-08T09:50:03Z</time>
      </trkpt>
      <trkpt lat="45.70041" lon="-1.22664">
        <ele>-20</ele>
        <time>2011-10-08T09:50:15Z</time>
      </trkpt>
      <trkpt lat="45.70039" lon="-1.22668">
        <ele>-21</ele>
        <time>2011-10-08T09:50:18Z</time>
      </trkpt>
      <trkpt lat="45.70032" lon="-1.22677">
        <ele>-20</ele>
        <time>2011-10-08T09:50:25Z</time>
      </trkpt>
      <trkpt lat="45.70025" lon="-1.22678">
        <ele>-17</ele>
        <time>2011-10-08T09:50:30Z</time>
      </trkpt>
      <trkpt lat="45.70011" lon="-1.22686">
        <ele>-12</ele>
        <time>2011-10-08T09:50:40Z</time>
      </trkpt>
      <trkpt lat="45.69999" lon="-1.22688">
        <ele>-9</ele>
        <time>2011-10-08T09:50:53Z</time>
      </trkpt>
      <trkpt lat="45.69996" lon="-1.22687">
        <ele>-8</ele>
        <time>2011-10-08T09:50:55Z</time>
      </trkpt>
      <trkpt lat="45.69978" lon="-1.2269">
        <ele>-4</ele>
        <time>2011-10-08T09:51:11Z</time>
      </trkpt>
      <trkpt lat="45.69969" lon="-1.22688">
        <ele>-3</ele>
        <time>2011-10-08T09:51:17Z</time>
      </trkpt>
      <trkpt lat="45.69964" lon="-1.22691">
        <ele>-2</ele>
        <time>2011-10-08T09:51:22Z</time>
      </trkpt>
      <trkpt lat="45.69953" lon="-1.22707">
        <ele>-1</ele>
        <time>2011-10-08T09:51:36Z</time>
      </trkpt>
      <trkpt lat="45.69949" lon="-1.22715">
        <ele>12.3</ele>
        <time>2011-10-08T09:51:43Z</time>
      </trkpt>
      <trkpt lat="45.69944" lon="-1.22733">
        <ele>12.1</ele>
        <time>2011-10-08T09:51:56Z</time>
      </trkpt>
      <trkpt lat="45.69939" lon="-1.22747">
        <ele>2</ele>
        <time>2011-10-08T09:52:05Z</time>
      </trkpt>
      <trkpt lat="45.69932" lon="-1.22767">
        <ele>3</ele>
        <time>2011-10-08T09:52:18Z</time>
      </trkpt>
      <trkpt lat="45.69925" lon="-1.22789">
        <ele>2</ele>
        <time>2011-10-08T09:52:31Z</time>
      </trkpt>
      <trkpt lat="45.69922" lon="-1.22804">
        <ele>1</ele>
        <time>2011-10-08T09:52:40Z</time>
      </trkpt>
      <trkpt lat="45.69922" lon="-1.22822">
        <ele>9.4</ele>
        <time>2011-10-08T09:52:50Z</time>
      </trkpt>
      <trkpt lat="45.69923" lon="-1.22829">
        <ele>-1</ele>
        <time>2011-10-08T09:52:54Z</time>
      </trkpt>
      <trkpt lat="45.69923" lon="-1.22835">
        <ele>-1</ele>
        <time>2011-10-08T09:52:58Z</time>
      </trkpt>
      <trkpt lat="45.69922" lon="-1.2284">
        <ele>-1</ele>
        <time>2011-10-08T09:53:01Z</time>
      </trkpt>
      <trkpt lat="45.6992" lon="-1.22861">
        <ele>-1</ele>
        <time>2011-10-08T09:53:12Z</time>
      </trkpt>
      <trkpt lat="45.6992" lon="-1.22866">
        <ele>-1</ele>
        <time>2011-10-08T09:53:15Z</time>
      </trkpt>
      <trkpt lat="45.69919" lon="-1.22886">
        <ele>-6</ele>
        <time>2011-10-08T09:53:27Z</time>
      </trkpt>
      <trkpt lat="45.69917" lon="-1.22906">
        <ele>-11</ele>
        <time>2011-10-08T09:53:41Z</time>
      </trkpt>
      <trkpt lat="45.69912" lon="-1.22929">
        <ele>-14</ele>
        <time>2011-10-08T09:53:56Z</time>
      </trkpt>
      <trkpt lat="45.6991" lon="-1.22936">
        <ele>-14</ele>
        <time>2011-10-08T09:54:02Z</time>
      </trkpt>
      <trkpt lat="45.69907" lon="-1.22946">
        <ele>-16</ele>
        <time>2011-10-08T09:54:09Z</time>
      </trkpt>
      <trkpt lat="45.69906" lon="-1.22955">
        <ele>-14</ele>
        <time>2011-10-08T09:54:28Z</time>
      </trkpt>
      <trkpt lat="45.69906" lon="-1.22956">
        <ele>-14</ele>
        <time>2011-10-08T09:54:53Z</time>
      </trkpt>
    </trkseg>
  </trk>
</gpx>